Observation data for Sweetwater on 06/17/2019      Previous  Date  Next       Current Mesonet Observations  Soil Data  Daily Summary Page  Observations in Plain Language
KSW1 170500Z 05009KT 22/19 A2995 RMK A01 T02200194  RH  085%=      5-min Rain = 0
KSW1 170501Z 05009KT 22/19 A2995 RMK A01 T02200194  RH  085%=      5-min Rain = 0
KSW1 170502Z 05008KT 22/19 A2995 RMK A01 T02200194  RH  085%=      5-min Rain = 0
KSW1 170503Z 05009KT 22/19 A2995 RMK A01 T02200194  RH  085%=      5-min Rain = 0
KSW1 170504Z 05010KT 22/19 A2995 RMK A01 T02190193  RH  085%=      5-min Rain = 0
KSW1 170505Z 05010KT 22/19 A2995 RMK A01 T02200194  RH  085%=      5-min Rain = 0
KSW1 170506Z 05009KT 22/19 A2995 RMK A01 T02200194  RH  085%=      5-min Rain = 0
KSW1 170507Z 05009KT 22/19 A2995 RMK A01 T02200194  RH  085%=      5-min Rain = 0
KSW1 170508Z 05009KT 22/19 A2995 RMK A01 T02190194  RH  085%=      5-min Rain = 0
KSW1 170509Z 05009KT 22/19 A2995 RMK A01 T02190194  RH  086%=      5-min Rain = 0
KSW1 170510Z 05008KT 22/19 A2995 RMK A01 T02180194  RH  086%=      5-min Rain = 0
KSW1 170511Z 05008KT 22/19 A2995 RMK A01 T02180194  RH  086%=      5-min Rain = 0
KSW1 170512Z 05010KT 22/19 A2995 RMK A01 T02180194  RH  086%=      5-min Rain = 0
KSW1 170513Z 05008KT 22/19 A2994 RMK A01 T02180194  RH  086%=      5-min Rain = 0
KSW1 170514Z 05007KT 22/19 A2994 RMK A01 T02170194  RH  086%=      5-min Rain = 0
KSW1 170515Z 05009KT 22/19 A2994 RMK A01 T02170194  RH  087%=      5-min Rain = 0
KSW1 170516Z 05008KT 22/19 A2994 RMK A01 T02170194  RH  087%=      5-min Rain = 0
KSW1 170517Z 04008KT 22/19 A2994 RMK A01 T02170194  RH  087%=      5-min Rain = 0
KSW1 170518Z 04007KT 22/19 A2994 RMK A01 T02160194  RH  087%=      5-min Rain = 0
KSW1 170519Z 04009KT 22/19 A2994 RMK A01 T02160194  RH  087%=      5-min Rain = 0
KSW1 170520Z 04008KT 22/19 A2994 RMK A01 T02150194  RH  088%=      5-min Rain = 0
KSW1 170521Z 04009KT 22/19 A2994 RMK A01 T02150194  RH  088%=      5-min Rain = 0
KSW1 170522Z 04009KT 21/19 A2994 RMK A01 T02140194  RH  088%=      5-min Rain = 0
KSW1 170523Z 04008KT 21/19 A2994 RMK A01 T02140194  RH  089%=      5-min Rain = 0
KSW1 170524Z 04009KT 21/19 A2994 RMK A01 T02130194  RH  089%=      5-min Rain = 0
KSW1 170525Z 04008KT 21/19 A2994 RMK A01 T02130194  RH  089%=      5-min Rain = 0
KSW1 170526Z 04010KT 21/19 A2994 RMK A01 T02130194  RH  089%=      5-min Rain = 0
KSW1 170527Z 04009KT 21/19 A2994 RMK A01 T02120194  RH  089%=      5-min Rain = 0
KSW1 170528Z 05010KT 21/19 A2994 RMK A01 T02120194  RH  089%=      5-min Rain = 0
KSW1 170529Z 05009KT 21/19 A2994 RMK A01 T02120194  RH  090%=      5-min Rain = 0
KSW1 170530Z 05009KT 21/19 A2994 RMK A01 T02120194  RH  090%=      5-min Rain = 0
KSW1 170531Z 04009KT 21/19 A2994 RMK A01 T02110194  RH  090%=      5-min Rain = 0
KSW1 170532Z 05009KT 21/19 A2994 RMK A01 T02110194  RH  090%=      5-min Rain = 0
KSW1 170533Z 05008KT 21/19 A2994 RMK A01 T02110194  RH  090%=      5-min Rain = 0
KSW1 170534Z 05009KT 21/19 A2994 RMK A01 T02110194  RH  090%=      5-min Rain = 0
KSW1 170535Z 05008KT 21/19 A2994 RMK A01 T02110194  RH  090%=      5-min Rain = 0
KSW1 170536Z 05009KT 21/19 A2995 RMK A01 T02110194  RH  090%=      5-min Rain = 0
KSW1 170537Z 05010KT 21/19 A2995 RMK A01 T02110194  RH  090%=      5-min Rain = 0
KSW1 170538Z 05009KT 21/19 A2995 RMK A01 T02110194  RH  090%=      5-min Rain = 0
KSW1 170539Z 05009KT 21/19 A2995 RMK A01 T02110194  RH  090%=      5-min Rain = 0
KSW1 170540Z 05009KT 21/19 A2995 RMK A01 T02110194  RH  090%=      5-min Rain = 0
KSW1 170541Z 05009KT 21/19 A2995 RMK A01 T02110194  RH  090%=      5-min Rain = 0
KSW1 170542Z 05010KT 21/19 A2995 RMK A01 T02110194  RH  090%=      5-min Rain = 0
KSW1 170543Z 05009KT 21/19 A2995 RMK A01 T02110194  RH  090%=      5-min Rain = 0
KSW1 170544Z 06008KT 21/19 A2995 RMK A01 T02110194  RH  090%=      5-min Rain = 0
KSW1 170545Z 05010KT 21/19 A2995 RMK A01 T02100194  RH  090%=      5-min Rain = 0
KSW1 170546Z 05008KT 21/19 A2995 RMK A01 T02100194  RH  090%=      5-min Rain = 0
KSW1 170547Z 05008KT 21/19 A2995 RMK A01 T02100194  RH  090%=      5-min Rain = 0
KSW1 170548Z 05008KT 21/19 A2994 RMK A01 T02100194  RH  091%=      5-min Rain = 0
KSW1 170549Z 05009KT 21/19 A2994 RMK A01 T02100194  RH  091%=      5-min Rain = 0
KSW1 170550Z 05009KT 21/19 A2994 RMK A01 T02090193  RH  091%=      5-min Rain = 0
KSW1 170551Z 05010KT 21/19 A2995 RMK A01 T02090194  RH  091%=      5-min Rain = 0
KSW1 170552Z 05010KT 21/19 A2994 RMK A01 T02090194  RH  091%=      5-min Rain = 0
KSW1 170553Z 05010KT 21/19 A2994 RMK A01 T02090194  RH  091%=      5-min Rain = 0
KSW1 170554Z 05008KT 21/19 A2994 RMK A01 T02090194  RH  091%=      5-min Rain = 0
KSW1 170555Z 05009KT 21/19 A2994 RMK A01 T02090194  RH  091%=      5-min Rain = 0
KSW1 170556Z 05009KT 21/19 A2994 RMK A01 T02080194  RH  091%=      5-min Rain = 0
KSW1 170557Z 05010KT 21/19 A2994 RMK A01 T02080194  RH  091%=      5-min Rain = 0
KSW1 170558Z 05009KT 21/19 A2994 RMK A01 T02090194  RH  091%=      5-min Rain = 0
KSW1 170559Z 05009KT 21/19 A2995 RMK A01 T02090194  RH  091%=      5-min Rain = 0
KSW1 170600Z 06010KT 21/19 A2995 RMK A01 T02090194  RH  091%=      5-min Rain = 0
KSW1 170601Z 05009KT 21/19 A2995 RMK A01 T02090194  RH  091%=      5-min Rain = 0
KSW1 170602Z 06008KT 21/19 A2995 RMK A01 T02090194  RH  091%=      5-min Rain = 0
KSW1 170603Z 05009KT 21/19 A2995 RMK A01 T02090194  RH  091%=      5-min Rain = 0
KSW1 170604Z 06008KT 21/19 A2995 RMK A01 T02090194  RH  091%=      5-min Rain = 0
KSW1 170605Z 05009KT 21/19 A2995 RMK A01 T02090194  RH  091%=      5-min Rain = 0
KSW1 170606Z 05010KT 21/19 A2995 RMK A01 T02080194  RH  091%=      5-min Rain = 0
KSW1 170607Z 05010KT 21/19 A2995 RMK A01 T02080194  RH  091%=      5-min Rain = 0
KSW1 170608Z 05010KT 21/19 A2995 RMK A01 T02080194  RH  091%=      5-min Rain = 0
KSW1 170609Z 05010KT 21/19 A2995 RMK A01 T02090194  RH  091%=      5-min Rain = 0
KSW1 170610Z 05010KT 21/19 A2995 RMK A01 T02080194  RH  092%=      5-min Rain = 0
KSW1 170611Z 05010KT 21/19 A2995 RMK A01 T02090194  RH  092%=      5-min Rain = 0
KSW1 170612Z 05010KT 21/19 A2995 RMK A01 T02090194  RH  092%=      5-min Rain = 0
KSW1 170613Z 05010KT 21/20 A2995 RMK A01 T02090195  RH  091%=      5-min Rain = 0
KSW1 170614Z 05010KT 21/19 A2995 RMK A01 T02090194  RH  091%=      5-min Rain = 0
KSW1 170615Z 05010KT 21/20 A2995 RMK A01 T02090195  RH  091%=      5-min Rain = 0
KSW1 170616Z 05009KT 21/20 A2995 RMK A01 T02100195  RH  091%=      5-min Rain = 0
KSW1 170617Z 05010KT 21/20 A2995 RMK A01 T02100195  RH  091%=      5-min Rain = 0
KSW1 170618Z 05010KT 21/20 A2995 RMK A01 T02100195  RH  091%=      5-min Rain = 0
KSW1 170619Z 05010KT 21/20 A2995 RMK A01 T02110195  RH  091%=      5-min Rain = 0
KSW1 170620Z 05009KT 21/20 A2995 RMK A01 T02110195  RH  091%=      5-min Rain = 0
KSW1 170621Z 05009KT 21/20 A2995 RMK A01 T02110195  RH  090%=      5-min Rain = 0
KSW1 170622Z 05009KT 21/20 A2995 RMK A01 T02120195  RH  090%=      5-min Rain = 0
KSW1 170623Z 05009KT 21/20 A2995 RMK A01 T02120195  RH  090%=      5-min Rain = 0
KSW1 170624Z 06010KT 21/20 A2995 RMK A01 T02120195  RH  090%=      5-min Rain = 0
KSW1 170625Z 06010KT 21/20 A2995 RMK A01 T02120195  RH  090%=      5-min Rain = 0
KSW1 170626Z 06010KT 21/20 A2995 RMK A01 T02120195  RH  090%=      5-min Rain = 0
KSW1 170627Z 06009KT 21/20 A2995 RMK A01 T02120195  RH  090%=      5-min Rain = 0
KSW1 170628Z 06010KT 21/20 A2995 RMK A01 T02130195  RH  090%=      5-min Rain = 0
KSW1 170629Z 06010KT 21/20 A2995 RMK A01 T02120195  RH  089%=      5-min Rain = 0
KSW1 170630Z 06010KT 21/20 A2995 RMK A01 T02130195  RH  089%=      5-min Rain = 0
KSW1 170631Z 06009KT 21/20 A2995 RMK A01 T02130195  RH  089%=      5-min Rain = 0
KSW1 170632Z 06010KT 21/20 A2995 RMK A01 T02120195  RH  090%=      5-min Rain = 0
KSW1 170633Z 05011KT 21/20 A2995 RMK A01 T02120195  RH  090%=      5-min Rain = 0
KSW1 170634Z 05012KT 21/19 A2995 RMK A01 T02120194  RH  089%=      5-min Rain = 0
KSW1 170635Z 05010KT 21/19 A2995 RMK A01 T02120194  RH  089%=      5-min Rain = 0
KSW1 170636Z 05010KT 21/19 A2995 RMK A01 T02120193  RH  089%=      5-min Rain = 0
KSW1 170637Z 05009KT 21/19 A2995 RMK A01 T02120193  RH  089%=      5-min Rain = 0
KSW1 170638Z 05011KT 21/19 A2995 RMK A01 T02120193  RH  089%=      5-min Rain = 0
KSW1 170639Z 05011KT 21/19 A2995 RMK A01 T02120193  RH  089%=      5-min Rain = 0
KSW1 170640Z 05010KT 21/19 A2995 RMK A01 T02120193  RH  089%=      5-min Rain = 0
KSW1 170641Z 05010KT 21/19 A2995 RMK A01 T02120193  RH  089%=      5-min Rain = 0
KSW1 170642Z 05012KT 21/19 A2995 RMK A01 T02120193  RH  089%=      5-min Rain = 0
KSW1 170643Z 05012KT 21/19 A2995 RMK A01 T02120193  RH  089%=      5-min Rain = 0
KSW1 170644Z 05010KT 21/19 A2995 RMK A01 T02120193  RH  089%=      5-min Rain = 0
KSW1 170645Z 05010KT 21/19 A2995 RMK A01 T02120193  RH  089%=      5-min Rain = 0
KSW1 170646Z 06010KT 21/19 A2995 RMK A01 T02110193  RH  089%=      5-min Rain = 0
KSW1 170647Z 06011KT 21/19 A2995 RMK A01 T02110193  RH  090%=      5-min Rain = 0
KSW1 170648Z 06012KT 21/19 A2995 RMK A01 T02110193  RH  090%=      5-min Rain = 0
KSW1 170649Z 07011KT 21/19 A2995 RMK A01 T02110193  RH  090%=      5-min Rain = 0
KSW1 170650Z 07009KT 21/19 A2995 RMK A01 T02110193  RH  090%=      5-min Rain = 0
KSW1 170651Z 07010KT 21/19 A2995 RMK A01 T02100193  RH  090%=      5-min Rain = 0
KSW1 170652Z 07010KT 21/19 A2995 RMK A01 T02100193  RH  090%=      5-min Rain = 0
KSW1 170653Z 08010KT 21/19 A2995 RMK A01 T02100193  RH  090%=      5-min Rain = 0
KSW1 170654Z 08010KT 21/19 A2995 RMK A01 T02100193  RH  090%=      5-min Rain = 0
KSW1 170655Z 08012KT 21/19 A2995 RMK A01 T02090192  RH  090%=      5-min Rain = 0
KSW1 170656Z 09011KT 21/19 A2995 RMK A01 T02090192  RH  090%=      5-min Rain = 0
KSW1 170657Z 09011KT 21/19 A2995 RMK A01 T02090191  RH  090%=      5-min Rain = 0
KSW1 170658Z 10010KT 21/19 A2995 RMK A01 T02090191  RH  089%=      5-min Rain = 0
KSW1 170659Z 10012KT 21/19 A2995 RMK A01 T02090191  RH  089%=      5-min Rain = 0
KSW1 170700Z 10011KT 21/19 A2996 RMK A01 T02090191  RH  089%=      5-min Rain = 0
KSW1 170701Z 10012KT 21/19 A2996 RMK A01 T02090192  RH  090%=      5-min Rain = 0
KSW1 170702Z 11010KT 21/19 A2996 RMK A01 T02090191  RH  089%=      5-min Rain = 0
KSW1 170703Z 12011KT 21/19 A2996 RMK A01 T02090191  RH  089%=      5-min Rain = 0
KSW1 170704Z 12011KT 21/19 A2996 RMK A01 T02090191  RH  089%=      5-min Rain = 0
KSW1 170705Z 12012KT 21/19 A2996 RMK A01 T02100191  RH  089%=      5-min Rain = 0
KSW1 170706Z 12011KT 21/19 A2996 RMK A01 T02100190  RH  088%=      5-min Rain = 0
KSW1 170707Z 12010KT 21/19 A2996 RMK A01 T02110191  RH  088%=      5-min Rain = 0
KSW1 170708Z 12010KT 21/19 A2996 RMK A01 T02120191  RH  088%=      5-min Rain = 0
KSW1 170709Z 12009KT 21/19 A2996 RMK A01 T02120190  RH  087%=      5-min Rain = 0
KSW1 170710Z 11008KT 21/19 A2996 RMK A01 T02120190  RH  087%=      5-min Rain = 0
KSW1 170711Z 10009KT 21/19 A2996 RMK A01 T02130190  RH  087%=      5-min Rain = 0
KSW1 170712Z 10007KT 21/19 A2996 RMK A01 T02130190  RH  087%=      5-min Rain = 0
KSW1 170713Z 10009KT 21/19 A2996 RMK A01 T02130190  RH  087%=      5-min Rain = 0
KSW1 170714Z 10009KT 21/19 A2996 RMK A01 T02140190  RH  086%=      5-min Rain = 0
KSW1 170715Z 09009KT 21/19 A2996 RMK A01 T02140190  RH  086%=      5-min Rain = 0
KSW1 170716Z 09009KT 21/19 A2996 RMK A01 T02140190  RH  086%=      5-min Rain = 0
KSW1 170717Z 09007KT 21/19 A2996 RMK A01 T02140190  RH  086%=      5-min Rain = 0
KSW1 170718Z 08008KT 21/19 A2996 RMK A01 T02140190  RH  086%=      5-min Rain = 0
KSW1 170719Z 09009KT 21/19 A2995 RMK A01 T02140190  RH  086%=      5-min Rain = 0
KSW1 170720Z 09008KT 21/19 A2995 RMK A01 T02140190  RH  086%=      5-min Rain = 0
KSW1 170721Z 09011KT 21/19 A2995 RMK A01 T02140190  RH  086%=      5-min Rain = 0
KSW1 170722Z 09011KT 21/19 A2995 RMK A01 T02140189  RH  086%=      5-min Rain = 0
KSW1 170723Z 09010KT 21/19 A2995 RMK A01 T02140188  RH  085%=      5-min Rain = 0
KSW1 170724Z 09009KT 21/19 A2995 RMK A01 T02140189  RH  085%=      5-min Rain = 0
KSW1 170725Z 09009KT 21/19 A2995 RMK A01 T02140189  RH  086%=      5-min Rain = 0
KSW1 170726Z 08011KT 21/19 A2995 RMK A01 T02130188  RH  086%=      5-min Rain = 0
KSW1 170727Z 09009KT 21/19 A2995 RMK A01 T02130188  RH  085%=      5-min Rain = 0
KSW1 170728Z 09009KT 21/19 A2995 RMK A01 T02130188  RH  086%=      5-min Rain = 0
KSW1 170729Z 08009KT 21/19 A2995 RMK A01 T02130188  RH  086%=      5-min Rain = 0
KSW1 170730Z 08009KT 21/19 A2995 RMK A01 T02130188  RH  086%=      5-min Rain = 0
KSW1 170731Z 08008KT 21/19 A2995 RMK A01 T02120188  RH  086%=      5-min Rain = 0
KSW1 170732Z 08008KT 21/19 A2995 RMK A01 T02120188  RH  086%=      5-min Rain = 0
KSW1 170733Z 08008KT 21/19 A2995 RMK A01 T02110188  RH  087%=      5-min Rain = 0
KSW1 170734Z 08007KT 21/19 A2995 RMK A01 T02110188  RH  087%=      5-min Rain = 0
KSW1 170735Z 09007KT 21/19 A2995 RMK A01 T02100188  RH  087%=      5-min Rain = 0
KSW1 170736Z 09007KT 21/19 A2995 RMK A01 T02100187  RH  087%=      5-min Rain = 0
KSW1 170737Z 09007KT 21/19 A2995 RMK A01 T02100188  RH  087%=      5-min Rain = 0
KSW1 170738Z 09007KT 21/19 A2995 RMK A01 T02090187  RH  087%=      5-min Rain = 0
KSW1 170739Z 09007KT 21/19 A2995 RMK A01 T02090187  RH  087%=      5-min Rain = 0
KSW1 170740Z 10007KT 21/19 A2995 RMK A01 T02080187  RH  088%=      5-min Rain = 0
KSW1 170741Z 09007KT 21/19 A2995 RMK A01 T02080187  RH  088%=      5-min Rain = 0
KSW1 170742Z 09007KT 21/19 A2995 RMK A01 T02070187  RH  088%=      5-min Rain = 0
KSW1 170743Z 10007KT 21/19 A2995 RMK A01 T02070187  RH  088%=      5-min Rain = 0
KSW1 170744Z 10006KT 21/19 A2995 RMK A01 T02070187  RH  088%=      5-min Rain = 0
KSW1 170745Z 09006KT 21/19 A2995 RMK A01 T02070187  RH  088%=      5-min Rain = 0
KSW1 170746Z 09006KT 21/19 A2995 RMK A01 T02070187  RH  088%=      5-min Rain = 0
KSW1 170747Z 09006KT 21/19 A2995 RMK A01 T02070187  RH  088%=      5-min Rain = 0
KSW1 170748Z 09005KT 21/19 A2995 RMK A01 T02070186  RH  088%=      5-min Rain = 0
KSW1 170749Z 10005KT 21/19 A2995 RMK A01 T02070186  RH  088%=      5-min Rain = 0
KSW1 170750Z 10005KT 21/19 A2995 RMK A01 T02070186  RH  088%=      5-min Rain = 0
KSW1 170751Z 10005KT 21/19 A2995 RMK A01 T02060186  RH  088%=      5-min Rain = 0
KSW1 170752Z 11005KT 21/19 A2995 RMK A01 T02060186  RH  088%=      5-min Rain = 0
KSW1 170753Z 11006KT 21/19 A2996 RMK A01 T02050186  RH  089%=      5-min Rain = 0
KSW1 170754Z 11006KT 21/19 A2996 RMK A01 T02050186  RH  089%=      5-min Rain = 0
KSW1 170755Z 11006KT 20/19 A2996 RMK A01 T02040186  RH  089%=      5-min Rain = 0
KSW1 170756Z 12005KT 20/19 A2996 RMK A01 T02040186  RH  089%=      5-min Rain = 0
KSW1 170757Z 11005KT 20/19 A2996 RMK A01 T02040186  RH  089%=      5-min Rain = 0
KSW1 170758Z 11005KT 20/19 A2996 RMK A01 T02030186  RH  090%=      5-min Rain = 0
KSW1 170759Z 11005KT 20/19 A2996 RMK A01 T02030186  RH  090%=      5-min Rain = 0
KSW1 170800Z 11005KT 20/19 A2996 RMK A01 T02030186  RH  090%=      5-min Rain = 0
KSW1 170801Z 10005KT 20/19 A2996 RMK A01 T02030186  RH  090%=      5-min Rain = 0
KSW1 170802Z 10005KT 20/19 A2996 RMK A01 T02030186  RH  090%=      5-min Rain = 0
KSW1 170803Z 10005KT 20/19 A2995 RMK A01 T02030186  RH  090%=      5-min Rain = 0
KSW1 170804Z 10006KT 20/19 A2995 RMK A01 T02030186  RH  090%=      5-min Rain = 0
KSW1 170805Z 10006KT 20/19 A2995 RMK A01 T02040187  RH  090%=      5-min Rain = 0
KSW1 170806Z 10006KT 20/19 A2995 RMK A01 T02040187  RH  090%=      5-min Rain = 0
KSW1 170807Z 10006KT 21/19 A2995 RMK A01 T02050187  RH  090%=      5-min Rain = 0
KSW1 170808Z 10005KT 21/19 A2995 RMK A01 T02050187  RH  089%=      5-min Rain = 0
KSW1 170809Z 10006KT 21/19 A2995 RMK A01 T02050187  RH  089%=      5-min Rain = 0
KSW1 170810Z 10006KT 21/19 A2995 RMK A01 T02060187  RH  089%=      5-min Rain = 0
KSW1 170811Z 10005KT 21/19 A2995 RMK A01 T02060187  RH  088%=      5-min Rain = 0
KSW1 170812Z 11005KT 21/19 A2995 RMK A01 T02060187  RH  088%=      5-min Rain = 0
KSW1 170813Z 11006KT 21/19 A2995 RMK A01 T02070186  RH  088%=      5-min Rain = 0
KSW1 170814Z 11005KT 21/19 A2995 RMK A01 T02070186  RH  088%=      5-min Rain = 0
KSW1 170815Z 11005KT 21/19 A2995 RMK A01 T02070185  RH  087%=      5-min Rain = 0
KSW1 170816Z 11006KT 21/19 A2995 RMK A01 T02070185  RH  087%=      5-min Rain = 0
KSW1 170817Z 11006KT 21/18 A2995 RMK A01 T02070184  RH  087%=      5-min Rain = 0
KSW1 170818Z 10006KT 21/18 A2996 RMK A01 T02070184  RH  086%=      5-min Rain = 0
KSW1 170819Z 10006KT 21/18 A2996 RMK A01 T02070184  RH  086%=      5-min Rain = 0
KSW1 170820Z 10006KT 21/18 A2996 RMK A01 T02070184  RH  086%=      5-min Rain = 0
KSW1 170821Z 10006KT 21/18 A2996 RMK A01 T02070183  RH  086%=      5-min Rain = 0
KSW1 170822Z 10006KT 21/18 A2996 RMK A01 T02070183  RH  086%=      5-min Rain = 0
KSW1 170823Z 10006KT 21/18 A2996 RMK A01 T02060183  RH  086%=      5-min Rain = 0
KSW1 170824Z 10006KT 21/18 A2996 RMK A01 T02060183  RH  086%=      5-min Rain = 0
KSW1 170825Z 10005KT 21/18 A2996 RMK A01 T02060183  RH  086%=      5-min Rain = 0
KSW1 170826Z 09006KT 21/18 A2996 RMK A01 T02060183  RH  087%=      5-min Rain = 0
KSW1 170827Z 10006KT 21/18 A2996 RMK A01 T02050182  RH  087%=      5-min Rain = 0
KSW1 170828Z 11006KT 21/18 A2996 RMK A01 T02050182  RH  087%=      5-min Rain = 0
KSW1 170829Z 11006KT 21/18 A2996 RMK A01 T02050182  RH  087%=      5-min Rain = 0
KSW1 170830Z 11007KT 20/18 A2996 RMK A01 T02040181  RH  087%=      5-min Rain = 0
KSW1 170831Z 11006KT 20/18 A2996 RMK A01 T02040181  RH  087%=      5-min Rain = 0
KSW1 170832Z 11006KT 20/18 A2996 RMK A01 T02040181  RH  087%=      5-min Rain = 0
KSW1 170833Z 10006KT 20/18 A2996 RMK A01 T02030181  RH  087%=      5-min Rain = 0
KSW1 170834Z 09005KT 20/18 A2996 RMK A01 T02030181  RH  087%=      5-min Rain = 0
KSW1 170835Z 08005KT 20/18 A2996 RMK A01 T02030181  RH  087%=      5-min Rain = 0
KSW1 170836Z 08005KT 20/18 A2996 RMK A01 T02020181  RH  088%=      5-min Rain = 0
KSW1 170837Z 08005KT 20/18 A2996 RMK A01 T02010180  RH  088%=      5-min Rain = 0
KSW1 170838Z 09005KT 20/18 A2996 RMK A01 T02010180  RH  088%=      5-min Rain = 0
KSW1 170839Z 10005KT 20/18 A2996 RMK A01 T02010180  RH  088%=      5-min Rain = 0
KSW1 170840Z 10005KT 20/18 A2996 RMK A01 T02000180  RH  088%=      5-min Rain = 0
KSW1 170841Z 10006KT 20/18 A2996 RMK A01 T02000180  RH  088%=      5-min Rain = 0
KSW1 170842Z 10006KT 20/18 A2996 RMK A01 T02000180  RH  089%=      5-min Rain = 0
KSW1 170843Z 10005KT 20/18 A2996 RMK A01 T02000180  RH  089%=      5-min Rain = 0
KSW1 170844Z 10005KT 20/18 A2996 RMK A01 T01990180  RH  089%=      5-min Rain = 0
KSW1 170845Z 10005KT 20/18 A2996 RMK A01 T01990180  RH  089%=      5-min Rain = 0
KSW1 170846Z 09005KT 20/18 A2996 RMK A01 T01990180  RH  089%=      5-min Rain = 0
KSW1 170847Z 09005KT 20/18 A2996 RMK A01 T01990181  RH  089%=      5-min Rain = 0
KSW1 170848Z 09004KT 20/18 A2996 RMK A01 T01990181  RH  089%=      5-min Rain = 0
KSW1 170849Z 09005KT 20/18 A2996 RMK A01 T01980180  RH  089%=      5-min Rain = 0
KSW1 170850Z 10005KT 20/18 A2996 RMK A01 T01980180  RH  089%=      5-min Rain = 0
KSW1 170851Z 10005KT 20/18 A2996 RMK A01 T01980180  RH  089%=      5-min Rain = 0
KSW1 170852Z 11005KT 20/18 A2996 RMK A01 T01980180  RH  089%=      5-min Rain = 0
KSW1 170853Z 11005KT 20/18 A2996 RMK A01 T01970180  RH  090%=      5-min Rain = 0
KSW1 170854Z 11004KT 20/18 A2996 RMK A01 T01970180  RH  090%=      5-min Rain = 0
KSW1 170855Z 11004KT 20/18 A2996 RMK A01 T01970180  RH  090%=      5-min Rain = 0
KSW1 170856Z 11004KT 20/18 A2996 RMK A01 T01960179  RH  090%=      5-min Rain = 0
KSW1 170857Z 11004KT 20/18 A2996 RMK A01 T01960179  RH  090%=      5-min Rain = 0
KSW1 170858Z 10004KT 20/18 A2996 RMK A01 T01950179  RH  090%=      5-min Rain = 0
KSW1 170859Z 10004KT 20/18 A2996 RMK A01 T01950179  RH  090%=      5-min Rain = 0
KSW1 170900Z 11004KT 20/18 A2996 RMK A01 T01950179  RH  090%=      5-min Rain = 0
KSW1 170901Z 11004KT 20/18 A2996 RMK A01 T01950179  RH  091%=      5-min Rain = 0
KSW1 170902Z 11004KT 19/18 A2996 RMK A01 T01940179  RH  091%=      5-min Rain = 0
KSW1 170903Z 11004KT 19/18 A2996 RMK A01 T01940178  RH  091%=      5-min Rain = 0
KSW1 170904Z 11004KT 19/18 A2996 RMK A01 T01930178  RH  091%=      5-min Rain = 0
KSW1 170905Z 11004KT 19/18 A2996 RMK A01 T01930178  RH  091%=      5-min Rain = 0
KSW1 170906Z 11005KT 19/18 A2996 RMK A01 T01930178  RH  091%=      5-min Rain = 0
KSW1 170907Z 10005KT 19/18 A2996 RMK A01 T01930178  RH  091%=      5-min Rain = 0
KSW1 170908Z 10005KT 19/18 A2996 RMK A01 T01920177  RH  091%=      5-min Rain = 0
KSW1 170909Z 10005KT 19/18 A2995 RMK A01 T01910177  RH  091%=      5-min Rain = 0
KSW1 170910Z 10005KT 19/18 A2995 RMK A01 T01910176  RH  091%=      5-min Rain = 0
KSW1 170911Z 10005KT 19/18 A2996 RMK A01 T01900176  RH  092%=      5-min Rain = 0
KSW1 170912Z 10006KT 19/18 A2996 RMK A01 T01900176  RH  092%=      5-min Rain = 0
KSW1 170913Z 11006KT 19/18 A2996 RMK A01 T01900177  RH  092%=      5-min Rain = 0
KSW1 170914Z 11005KT 19/18 A2996 RMK A01 T01900177  RH  092%=      5-min Rain = 0
KSW1 170915Z 11005KT 19/18 A2996 RMK A01 T01900177  RH  092%=      5-min Rain = 0
KSW1 170916Z 10005KT 19/18 A2996 RMK A01 T01890177  RH  092%=      5-min Rain = 0
KSW1 170917Z 09005KT 19/18 A2996 RMK A01 T01890177  RH  092%=      5-min Rain = 0
KSW1 170918Z 09005KT 19/18 A2996 RMK A01 T01890176  RH  092%=      5-min Rain = 0
KSW1 170919Z 09005KT 19/18 A2996 RMK A01 T01890176  RH  092%=      5-min Rain = 0
KSW1 170920Z 09005KT 19/18 A2996 RMK A01 T01880176  RH  093%=      5-min Rain = 0
KSW1 170921Z 09005KT 19/18 A2996 RMK A01 T01880176  RH  093%=      5-min Rain = 0
KSW1 170922Z 09005KT 19/18 A2996 RMK A01 T01880177  RH  093%=      5-min Rain = 0
KSW1 170923Z 09005KT 19/18 A2996 RMK A01 T01870176  RH  093%=      5-min Rain = 0
KSW1 170924Z 10005KT 19/18 A2996 RMK A01 T01870176  RH  093%=      5-min Rain = 0
KSW1 170925Z 10006KT 19/18 A2996 RMK A01 T01870176  RH  093%=      5-min Rain = 0
KSW1 170926Z 10006KT 19/18 A2996 RMK A01 T01870176  RH  093%=      5-min Rain = 0
KSW1 170927Z 10006KT 19/18 A2996 RMK A01 T01870176  RH  093%=      5-min Rain = 0
KSW1 170928Z 10005KT 19/18 A2996 RMK A01 T01860176  RH  093%=      5-min Rain = 0
KSW1 170929Z 10005KT 19/18 A2996 RMK A01 T01860175  RH  094%=      5-min Rain = 0
KSW1 170930Z 11005KT 19/18 A2996 RMK A01 T01860176  RH  094%=      5-min Rain = 0
KSW1 170931Z 10005KT 19/18 A2996 RMK A01 T01860175  RH  094%=      5-min Rain = 0
KSW1 170932Z 10005KT 19/18 A2996 RMK A01 T01850175  RH  094%=      5-min Rain = 0
KSW1 170933Z 09006KT 19/18 A2996 RMK A01 T01850175  RH  094%=      5-min Rain = 0
KSW1 170934Z 09006KT 18/18 A2997 RMK A01 T01840175  RH  094%=      5-min Rain = 0
KSW1 170935Z 09006KT 18/18 A2997 RMK A01 T01840175  RH  094%=      5-min Rain = 0
KSW1 170936Z 10005KT 18/18 A2997 RMK A01 T01840175  RH  094%=      5-min Rain = 0
KSW1 170937Z 09005KT 18/18 A2997 RMK A01 T01840175  RH  094%=      5-min Rain = 0
KSW1 170938Z 10005KT 18/18 A2997 RMK A01 T01840175  RH  095%=      5-min Rain = 0
KSW1 170939Z 09005KT 19/18 A2997 RMK A01 T01850176  RH  095%=      5-min Rain = 0
KSW1 170940Z 10004KT 19/18 A2997 RMK A01 T01850176  RH  095%=      5-min Rain = 0
KSW1 170941Z 09004KT 19/18 A2997 RMK A01 T01850176  RH  095%=      5-min Rain = 0
KSW1 170942Z 09004KT 19/18 A2997 RMK A01 T01850176  RH  094%=      5-min Rain = 0
KSW1 170943Z 08004KT 19/18 A2997 RMK A01 T01850175  RH  094%=      5-min Rain = 0
KSW1 170944Z 08004KT 18/18 A2997 RMK A01 T01840175  RH  094%=      5-min Rain = 0
KSW1 170945Z 08004KT 18/18 A2997 RMK A01 T01840175  RH  094%=      5-min Rain = 0
KSW1 170946Z 08004KT 18/18 A2997 RMK A01 T01840175  RH  094%=      5-min Rain = 0
KSW1 170947Z 08004KT 18/17 A2997 RMK A01 T01830174  RH  094%=      5-min Rain = 0
KSW1 170948Z 08004KT 18/17 A2997 RMK A01 T01830174  RH  094%=      5-min Rain = 0
KSW1 170949Z 08004KT 18/17 A2997 RMK A01 T01830174  RH  094%=      5-min Rain = 0
KSW1 170950Z 08004KT 18/17 A2997 RMK A01 T01820173  RH  094%=      5-min Rain = 0
KSW1 170951Z 09005KT 18/17 A2997 RMK A01 T01820172  RH  094%=      5-min Rain = 0
KSW1 170952Z 09005KT 18/17 A2997 RMK A01 T01810172  RH  094%=      5-min Rain = 0
KSW1 170953Z 08005KT 18/17 A2997 RMK A01 T01810172  RH  095%=      5-min Rain = 0
KSW1 170954Z 08005KT 18/17 A2997 RMK A01 T01810172  RH  095%=      5-min Rain = 0
KSW1 170955Z 08005KT 18/17 A2997 RMK A01 T01800173  RH  095%=      5-min Rain = 0
KSW1 170956Z 08005KT 18/17 A2997 RMK A01 T01810173  RH  095%=      5-min Rain = 0
KSW1 170957Z 08005KT 18/17 A2997 RMK A01 T01810174  RH  095%=      5-min Rain = 0
KSW1 170958Z 08006KT 18/17 A2997 RMK A01 T01810174  RH  095%=      5-min Rain = 0
KSW1 170959Z 08006KT 18/17 A2997 RMK A01 T01810174  RH  095%=      5-min Rain = 0
KSW1 171000Z 08006KT 18/17 A2997 RMK A01 T01810174  RH  095%=      5-min Rain = 0
KSW1 171001Z 08007KT 18/17 A2997 RMK A01 T01810174  RH  096%=      5-min Rain = 0
KSW1 171002Z 07007KT 18/17 A2997 RMK A01 T01810174  RH  096%=      5-min Rain = 0
KSW1 171003Z 07007KT 18/18 A2997 RMK A01 T01810175  RH  096%=      5-min Rain = 0
KSW1 171004Z 07008KT 18/18 A2997 RMK A01 T01820175  RH  096%=      5-min Rain = 0
KSW1 171005Z 08008KT 18/18 A2997 RMK A01 T01820175  RH  096%=      5-min Rain = 0
KSW1 171006Z 08007KT 18/18 A2997 RMK A01 T01820176  RH  096%=      5-min Rain = 0
KSW1 171007Z 08007KT 18/18 A2997 RMK A01 T01830176  RH  096%=      5-min Rain = 0
KSW1 171008Z 08007KT 18/18 A2997 RMK A01 T01830177  RH  096%=      5-min Rain = 0
KSW1 171009Z 08006KT 18/18 A2997 RMK A01 T01830177  RH  096%=      5-min Rain = 0
KSW1 171010Z 08006KT 18/18 A2997 RMK A01 T01830176  RH  096%=      5-min Rain = 0
KSW1 171011Z 08006KT 18/18 A2998 RMK A01 T01830176  RH  096%=      5-min Rain = 0
KSW1 171012Z 09005KT 18/18 A2998 RMK A01 T01830176  RH  096%=      5-min Rain = 0
KSW1 171013Z 09005KT 18/18 A2998 RMK A01 T01830176  RH  095%=      5-min Rain = 0
KSW1 171014Z 09006KT 18/18 A2998 RMK A01 T01830175  RH  095%=      5-min Rain = 0
KSW1 171015Z 09006KT 18/18 A2998 RMK A01 T01820175  RH  095%=      5-min Rain = 0
KSW1 171016Z 08006KT 18/17 A2997 RMK A01 T01820174  RH  095%=      5-min Rain = 0
KSW1 171017Z 07006KT 18/17 A2997 RMK A01 T01810174  RH  095%=      5-min Rain = 0
KSW1 171018Z 07007KT 18/17 A2997 RMK A01 T01810174  RH  095%=      5-min Rain = 0
KSW1 171019Z 07007KT 18/18 A2997 RMK A01 T01810175  RH  096%=      5-min Rain = 0
KSW1 171020Z 07007KT 18/18 A2997 RMK A01 T01820175  RH  096%=      5-min Rain = 0
KSW1 171021Z 07007KT 18/18 A2997 RMK A01 T01820175  RH  096%=      5-min Rain = 0
KSW1 171022Z 07006KT 18/18 A2997 RMK A01 T01820175  RH  096%=      5-min Rain = 0
KSW1 171023Z 07006KT 18/18 A2997 RMK A01 T01820175  RH  096%=      5-min Rain = 0
KSW1 171024Z 07006KT 18/17 A2997 RMK A01 T01820174  RH  095%=      5-min Rain = 0
KSW1 171025Z 07006KT 18/17 A2997 RMK A01 T01810174  RH  095%=      5-min Rain = 0
KSW1 171026Z 06005KT 18/17 A2997 RMK A01 T01810174  RH  095%=      5-min Rain = 0
KSW1 171027Z 05005KT 18/17 A2997 RMK A01 T01810173  RH  095%=      5-min Rain = 0
KSW1 171028Z 05005KT 18/17 A2997 RMK A01 T01800172  RH  095%=      5-min Rain = 0
KSW1 171029Z 05005KT 18/17 A2997 RMK A01 T01790172  RH  095%=      5-min Rain = 0
KSW1 171030Z 05005KT 18/17 A2997 RMK A01 T01790172  RH  095%=      5-min Rain = 0
KSW1 171031Z 05005KT 18/17 A2997 RMK A01 T01790171  RH  095%=      5-min Rain = 0
KSW1 171032Z 05005KT 18/17 A2997 RMK A01 T01790172  RH  096%=      5-min Rain = 0
KSW1 171033Z 05005KT 18/17 A2997 RMK A01 T01790172  RH  096%=      5-min Rain = 0
KSW1 171034Z 05005KT 18/17 A2997 RMK A01 T01780171  RH  096%=      5-min Rain = 0
KSW1 171035Z 05005KT 18/17 A2997 RMK A01 T01780172  RH  096%=      5-min Rain = 0
KSW1 171036Z 05005KT 18/17 A2997 RMK A01 T01780171  RH  096%=      5-min Rain = 0
KSW1 171037Z 05005KT 18/17 A2997 RMK A01 T01780171  RH  096%=      5-min Rain = 0
KSW1 171038Z 04006KT 18/17 A2997 RMK A01 T01770171  RH  096%=      5-min Rain = 0
KSW1 171039Z 04006KT 18/17 A2997 RMK A01 T01770170  RH  096%=      5-min Rain = 0
KSW1 171040Z 04007KT 18/17 A2997 RMK A01 T01770170  RH  096%=      5-min Rain = 0
KSW1 171041Z 04007KT 18/17 A2996 RMK A01 T01770171  RH  096%=      5-min Rain = 0
KSW1 171042Z 03006KT 18/17 A2996 RMK A01 T01770171  RH  096%=      5-min Rain = 0
KSW1 171043Z 03006KT 18/17 A2996 RMK A01 T01770171  RH  096%=      5-min Rain = 0
KSW1 171044Z 03006KT 18/17 A2996 RMK A01 T01770171  RH  096%=      5-min Rain = 0
KSW1 171045Z 03006KT 18/17 A2996 RMK A01 T01770171  RH  096%=      5-min Rain = 0
KSW1 171046Z 02006KT 18/17 A2997 RMK A01 T01770171  RH  096%=      5-min Rain = 0
KSW1 171047Z 03006KT 18/17 A2997 RMK A01 T01760170  RH  096%=      5-min Rain = 0
KSW1 171048Z 03006KT 18/17 A2997 RMK A01 T01760170  RH  096%=      5-min Rain = 0
KSW1 171049Z 03006KT 18/17 A2997 RMK A01 T01760170  RH  096%=      5-min Rain = 0
KSW1 171050Z 04006KT 18/17 A2997 RMK A01 T01760170  RH  096%=      5-min Rain = 0
KSW1 171051Z 04006KT 18/17 A2997 RMK A01 T01750170  RH  096%=      5-min Rain = 0
KSW1 171052Z 04006KT 18/17 A2997 RMK A01 T01750169  RH  096%=      5-min Rain = 0
KSW1 171053Z 04006KT 17/17 A2997 RMK A01 T01740169  RH  096%=      5-min Rain = 0
KSW1 171054Z 04006KT 17/17 A2997 RMK A01 T01740169  RH  096%=      5-min Rain = 0
KSW1 171055Z 04006KT 17/17 A2996 RMK A01 T01740168  RH  097%=      5-min Rain = 0
KSW1 171056Z 04006KT 17/17 A2996 RMK A01 T01740168  RH  097%=      5-min Rain = 0
KSW1 171057Z 04006KT 17/17 A2996 RMK A01 T01740169  RH  097%=      5-min Rain = 0
KSW1 171058Z 03006KT 17/17 A2996 RMK A01 T01740169  RH  097%=      5-min Rain = 0
KSW1 171059Z 03006KT 17/17 A2996 RMK A01 T01740169  RH  097%=      5-min Rain = 0
KSW1 171100Z 03006KT 17/17 A2996 RMK A01 T01740170  RH  097%=      5-min Rain = 0
KSW1 171101Z 03006KT 17/17 A2996 RMK A01 T01740170  RH  097%=      5-min Rain = 0
KSW1 171102Z 03006KT 17/17 A2996 RMK A01 T01740170  RH  097%=      5-min Rain = 0
KSW1 171103Z 03006KT 17/17 A2996 RMK A01 T01740170  RH  097%=      5-min Rain = 0
KSW1 171104Z 04006KT 17/17 A2996 RMK A01 T01740170  RH  097%=      5-min Rain = 0
KSW1 171105Z 04006KT 17/17 A2996 RMK A01 T01740170  RH  097%=      5-min Rain = 0
KSW1 171106Z 05006KT 17/17 A2996 RMK A01 T01740169  RH  097%=      5-min Rain = 0
KSW1 171107Z 05006KT 17/17 A2996 RMK A01 T01740169  RH  097%=      5-min Rain = 0
KSW1 171108Z 05006KT 17/17 A2996 RMK A01 T01730169  RH  097%=      5-min Rain = 0
KSW1 171109Z 05006KT 17/17 A2996 RMK A01 T01730169  RH  097%=      5-min Rain = 0
KSW1 171110Z 05006KT 17/17 A2996 RMK A01 T01730169  RH  097%=      5-min Rain = 0
KSW1 171111Z 05006KT 17/17 A2996 RMK A01 T01730169  RH  097%=      5-min Rain = 0
KSW1 171112Z 05006KT 17/17 A2996 RMK A01 T01730169  RH  097%=      5-min Rain = 0
KSW1 171113Z 04006KT 17/17 A2996 RMK A01 T01730169  RH  098%=      5-min Rain = 0
KSW1 171114Z 04006KT 17/17 A2996 RMK A01 T01730169  RH  098%=      5-min Rain = 0
KSW1 171115Z 04006KT 17/17 A2996 RMK A01 T01740170  RH  098%=      5-min Rain = 0
KSW1 171116Z 04007KT 17/17 A2995 RMK A01 T01740171  RH  098%=      5-min Rain = 0
KSW1 171117Z 04007KT 18/17 A2995 RMK A01 T01750171  RH  098%=      5-min Rain = 0
KSW1 171118Z 04007KT 18/17 A2995 RMK A01 T01750171  RH  098%=      5-min Rain = 0
KSW1 171119Z 04007KT 18/17 A2995 RMK A01 T01750171  RH  098%=      5-min Rain = 0
KSW1 171120Z 05007KT 18/17 A2995 RMK A01 T01750171  RH  098%=      5-min Rain = 0
KSW1 171121Z 05007KT 18/17 A2995 RMK A01 T01750171  RH  098%=      5-min Rain = 0
KSW1 171122Z 05007KT 18/17 A2995 RMK A01 T01750171  RH  098%=      5-min Rain = 0
KSW1 171123Z 05007KT 18/17 A2995 RMK A01 T01750171  RH  098%=      5-min Rain = 0
KSW1 171124Z 05006KT 18/17 A2995 RMK A01 T01750171  RH  098%=      5-min Rain = 0
KSW1 171125Z 04006KT 18/17 A2995 RMK A01 T01750171  RH  098%=      5-min Rain = 0
KSW1 171126Z 04006KT 18/17 A2995 RMK A01 T01750171  RH  098%=      5-min Rain = 0
KSW1 171127Z 04006KT 18/17 A2995 RMK A01 T01750171  RH  098%=      5-min Rain = 0
KSW1 171128Z 04006KT 18/17 A2995 RMK A01 T01750171  RH  098%=      5-min Rain = 0
KSW1 171129Z 05006KT 18/17 A2995 RMK A01 T01750171  RH  098%=      5-min Rain = 0
KSW1 171130Z 05007KT 18/17 A2995 RMK A01 T01750171  RH  098%=      5-min Rain = 0
KSW1 171131Z 04007KT 18/17 A2995 RMK A01 T01750172  RH  098%=      5-min Rain = 0
KSW1 171132Z 04007KT 18/17 A2995 RMK A01 T01750172  RH  098%=      5-min Rain = 0
KSW1 171133Z 04007KT 18/17 A2995 RMK A01 T01750172  RH  098%=      5-min Rain = 0
KSW1 171134Z 04007KT 18/17 A2996 RMK A01 T01760172  RH  098%=      5-min Rain = 0
KSW1 171135Z 04007KT 18/17 A2996 RMK A01 T01760173  RH  098%=      5-min Rain = 0
KSW1 171136Z 04007KT 18/17 A2996 RMK A01 T01760173  RH  098%=      5-min Rain = 0
KSW1 171137Z 05006KT 18/17 A2996 RMK A01 T01760173  RH  098%=      5-min Rain = 0
KSW1 171138Z 05006KT 18/17 A2996 RMK A01 T01760173  RH  098%=      5-min Rain = 0
KSW1 171139Z 05006KT 18/17 A2996 RMK A01 T01770173  RH  098%=      5-min Rain = 0
KSW1 171140Z 05005KT 18/17 A2996 RMK A01 T01770173  RH  098%=      5-min Rain = 0
KSW1 171141Z 06005KT 18/17 A2996 RMK A01 T01760173  RH  098%=      5-min Rain = 0
KSW1 171142Z 06005KT 18/17 A2996 RMK A01 T01770173  RH  098%=      5-min Rain = 0
KSW1 171143Z 06006KT 18/17 A2996 RMK A01 T01760173  RH  098%=      5-min Rain = 0
KSW1 171144Z 06006KT 18/17 A2997 RMK A01 T01760173  RH  098%=      5-min Rain = 0
KSW1 171145Z 07005KT 18/17 A2997 RMK A01 T01760173  RH  098%=      5-min Rain = 0
KSW1 171146Z 07005KT 18/17 A2997 RMK A01 T01760172  RH  098%=      5-min Rain = 0
KSW1 171147Z 07004KT 18/17 A2997 RMK A01 T01760172  RH  098%=      5-min Rain = 0
KSW1 171148Z 08004KT 18/17 A2997 RMK A01 T01760172  RH  098%=      5-min Rain = 0
KSW1 171149Z 09004KT 18/17 A2997 RMK A01 T01750172  RH  098%=      5-min Rain = 0
KSW1 171150Z 10004KT 18/17 A2997 RMK A01 T01750172  RH  098%=      5-min Rain = 0
KSW1 171151Z 10004KT 17/17 A2998 RMK A01 T01740171  RH  098%=      5-min Rain = 0
KSW1 171152Z 10004KT 17/17 A2998 RMK A01 T01740171  RH  098%=      5-min Rain = 0
KSW1 171153Z 11004KT 17/17 A2998 RMK A01 T01740170  RH  098%=      5-min Rain = 0
KSW1 171154Z 11005KT 17/17 A2998 RMK A01 T01730170  RH  098%=      5-min Rain = 0
KSW1 171155Z 12006KT 17/17 A2998 RMK A01 T01730170  RH  098%=      5-min Rain = 0
KSW1 171156Z 12006KT 17/17 A2998 RMK A01 T01730170  RH  098%=      5-min Rain = 0
KSW1 171157Z 11005KT 17/17 A2998 RMK A01 T01730170  RH  098%=      5-min Rain = 0
KSW1 171158Z 10003KT 17/17 A2998 RMK A01 T01730170  RH  098%=      5-min Rain = 0
KSW1 171159Z 10004KT 17/17 A2998 RMK A01 T01730170  RH  098%=      5-min Rain = 0
KSW1 171200Z 10004KT 17/17 A2998 RMK A01 T01730170  RH  098%=      5-min Rain = 0
KSW1 171201Z 09004KT 17/17 A2998 RMK A01 T01730170  RH  098%=      5-min Rain = 0
KSW1 171202Z 09004KT 17/17 A2998 RMK A01 T01730170  RH  098%=      5-min Rain = 0
KSW1 171203Z 08004KT 17/17 A2998 RMK A01 T01730170  RH  098%=      5-min Rain = 0
KSW1 171204Z 08005KT 17/17 A2998 RMK A01 T01730170  RH  098%=      5-min Rain = 0
KSW1 171205Z 07005KT 17/17 A2999 RMK A01 T01730170  RH  098%=      5-min Rain = 0
KSW1 171206Z 07005KT 17/17 A2999 RMK A01 T01740171  RH  098%=      5-min Rain = 0
KSW1 171207Z 06005KT 17/17 A2999 RMK A01 T01740171  RH  098%=      5-min Rain = 0
KSW1 171208Z 07005KT 17/17 A2999 RMK A01 T01740171  RH  098%=      5-min Rain = 0
KSW1 171209Z 07005KT 17/17 A2999 RMK A01 T01740171  RH  098%=      5-min Rain = 0
KSW1 171210Z 07005KT 18/17 A2999 RMK A01 T01750172  RH  098%=      5-min Rain = 0
KSW1 171211Z 06004KT 18/17 A2999 RMK A01 T01750172  RH  098%=      5-min Rain = 0
KSW1 171212Z 05004KT 18/17 A2999 RMK A01 T01750172  RH  098%=      5-min Rain = 0
KSW1 171213Z 05004KT 18/17 A2999 RMK A01 T01760173  RH  098%=      5-min Rain = 0
KSW1 171214Z 04004KT 18/17 A2999 RMK A01 T01760172  RH  098%=      5-min Rain = 0
KSW1 171215Z 04005KT 18/17 A2999 RMK A01 T01760173  RH  098%=      5-min Rain = 0
KSW1 171216Z 04005KT 18/17 A2999 RMK A01 T01760173  RH  098%=      5-min Rain = 0
KSW1 171217Z 04006KT 18/17 A2999 RMK A01 T01770174  RH  098%=      5-min Rain = 0
KSW1 171218Z 05005KT 18/17 A2999 RMK A01 T01770174  RH  098%=      5-min Rain = 0
KSW1 171219Z 05005KT 18/17 A2999 RMK A01 T01770174  RH  098%=      5-min Rain = 0
KSW1 171220Z 05004KT 18/17 A2999 RMK A01 T01780174  RH  098%=      5-min Rain = 0
KSW1 171221Z 06004KT 18/18 A2999 RMK A01 T01780175  RH  098%=      5-min Rain = 0
KSW1 171222Z 05004KT 18/18 A2999 RMK A01 T01790175  RH  098%=      5-min Rain = 0
KSW1 171223Z 05004KT 18/18 A30 RMK A01 T01790175  RH  098%=      5-min Rain = 0
KSW1 171224Z 05004KT 18/18 A30 RMK A01 T01790176  RH  098%=      5-min Rain = 0
KSW1 171225Z 05003KT 18/18 A30 RMK A01 T01800176  RH  098%=      5-min Rain = 0
KSW1 171226Z 07003KT 18/18 A30 RMK A01 T01800176  RH  098%=      5-min Rain = 0
KSW1 171227Z 08003KT 18/18 A30 RMK A01 T01800177  RH  098%=      5-min Rain = 0
KSW1 171228Z 11003KT 18/18 A30 RMK A01 T01810177  RH  098%=      5-min Rain = 0
KSW1 171229Z 13003KT 18/18 A30 RMK A01 T01810178  RH  098%=      5-min Rain = 0
KSW1 171230Z 14003KT 18/18 A30 RMK A01 T01820178  RH  098%=      5-min Rain = 0
KSW1 171231Z 13003KT 18/18 A30 RMK A01 T01830179  RH  098%=      5-min Rain = 0
KSW1 171232Z 14003KT 18/18 A30 RMK A01 T01830178  RH  097%=      5-min Rain = 0
KSW1 171233Z 16003KT 18/18 A30 RMK A01 T01820178  RH  097%=      5-min Rain = 0
KSW1 171234Z 16003KT 18/18 A30 RMK A01 T01830178  RH  097%=      5-min Rain = 0
KSW1 171235Z 17003KT 18/18 A30 RMK A01 T01830179  RH  097%=      5-min Rain = 0
KSW1 171236Z 17003KT 18/18 A30 RMK A01 T01830179  RH  097%=      5-min Rain = 0
KSW1 171237Z 17002KT 18/18 A30 RMK A01 T01830179  RH  097%=      5-min Rain = 0
KSW1 171238Z 15001KT 18/18 A30 RMK A01 T01840179  RH  097%=      5-min Rain = 0
KSW1 171239Z 15001KT 18/18 A30 RMK A01 T01840179  RH  097%=      5-min Rain = 0
KSW1 171240Z 15001KT 18/18 A30 RMK A01 T01840179  RH  097%=      5-min Rain = 0
KSW1 171241Z 15001KT 19/18 A30 RMK A01 T01850180  RH  097%=      5-min Rain = 0
KSW1 171242Z 15000KT 19/18 A30 RMK A01 T01850179  RH  097%=      5-min Rain = 0
KSW1 171243Z 00000KT 19/18 A30 RMK A01 T01850179  RH  096%=      5-min Rain = 0
KSW1 171244Z 00000KT 19/18 A30 RMK A01 T01850179  RH  096%=      5-min Rain = 0
KSW1 171245Z 00000KT 19/18 A3001 RMK A01 T01850179  RH  096%=      5-min Rain = 0
KSW1 171246Z 16000KT 19/18 A3001 RMK A01 T01850178  RH  096%=      5-min Rain = 0
KSW1 171247Z 19001KT 19/18 A3001 RMK A01 T01850179  RH  096%=      5-min Rain = 0
KSW1 171248Z 22002KT 19/18 A3001 RMK A01 T01850179  RH  096%=      5-min Rain = 0
KSW1 171249Z 22002KT 19/18 A3001 RMK A01 T01860179  RH  096%=      5-min Rain = 0
KSW1 171250Z 21002KT 19/18 A3001 RMK A01 T01860179  RH  096%=      5-min Rain = 0
KSW1 171251Z 21002KT 19/18 A3001 RMK A01 T01860178  RH  095%=      5-min Rain = 0
KSW1 171252Z 20002KT 19/18 A3001 RMK A01 T01860178  RH  095%=      5-min Rain = 0
KSW1 171253Z 19001KT 19/18 A3001 RMK A01 T01860178  RH  095%=      5-min Rain = 0
KSW1 171254Z 16002KT 19/18 A3001 RMK A01 T01870179  RH  095%=      5-min Rain = 0
KSW1 171255Z 17002KT 19/18 A3002 RMK A01 T01870179  RH  095%=      5-min Rain = 0
KSW1 171256Z 18003KT 19/18 A3002 RMK A01 T01870179  RH  095%=      5-min Rain = 0
KSW1 171257Z 19004KT 19/18 A3002 RMK A01 T01880179  RH  095%=      5-min Rain = 0
KSW1 171258Z 20005KT 19/18 A3002 RMK A01 T01880180  RH  095%=      5-min Rain = 0
KSW1 171259Z 19006KT 19/18 A3002 RMK A01 T01890180  RH  094%=      5-min Rain = 0
KSW1 171300Z 19006KT 19/18 A3002 RMK A01 T01890179  RH  094%=      5-min Rain = 0
KSW1 171301Z 18006KT 19/18 A3002 RMK A01 T01890179  RH  093%=      5-min Rain = 0
KSW1 171302Z 18004KT 19/18 A3002 RMK A01 T01890178  RH  093%=      5-min Rain = 0
KSW1 171303Z 17002KT 19/18 A3002 RMK A01 T01890179  RH  093%=      5-min Rain = 0
KSW1 171304Z 15001KT 19/18 A3002 RMK A01 T01900179  RH  093%=      5-min Rain = 0
KSW1 171305Z 15001KT 19/18 A3002 RMK A01 T01900178  RH  093%=      5-min Rain = 0
KSW1 171306Z 15000KT 19/18 A3002 RMK A01 T01900178  RH  093%=      5-min Rain = 0
KSW1 171307Z 16001KT 19/18 A3002 RMK A01 T01910179  RH  093%=      5-min Rain = 0
KSW1 171308Z 18002KT 19/18 A3002 RMK A01 T01910178  RH  092%=      5-min Rain = 0
KSW1 171309Z 17002KT 19/18 A3002 RMK A01 T01910177  RH  092%=      5-min Rain = 0
KSW1 171310Z 19002KT 19/18 A3002 RMK A01 T01910178  RH  092%=      5-min Rain = 0
KSW1 171311Z 18003KT 19/18 A3002 RMK A01 T01910179  RH  092%=      5-min Rain = 0
KSW1 171312Z 19002KT 19/18 A3002 RMK A01 T01920180  RH  093%=      5-min Rain = 0
KSW1 171313Z 18003KT 19/18 A3002 RMK A01 T01920179  RH  092%=      5-min Rain = 0
KSW1 171314Z 16001KT 19/18 A3002 RMK A01 T01920179  RH  092%=      5-min Rain = 0
KSW1 171315Z 15001KT 19/18 A3002 RMK A01 T01920179  RH  092%=      5-min Rain = 0
KSW1 171316Z 15000KT 19/18 A3002 RMK A01 T01930179  RH  092%=      5-min Rain = 0
KSW1 171317Z 13000KT 19/18 A3002 RMK A01 T01930180  RH  092%=      5-min Rain = 0
KSW1 171318Z 13000KT 19/18 A3002 RMK A01 T01930180  RH  092%=      5-min Rain = 0
KSW1 171319Z 00000KT 19/18 A3002 RMK A01 T01940179  RH  091%=      5-min Rain = 0
KSW1 171320Z 00000KT 19/18 A3002 RMK A01 T01940178  RH  091%=      5-min Rain = 0
KSW1 171321Z 00000KT 19/18 A3002 RMK A01 T01940178  RH  090%=      5-min Rain = 0
KSW1 171322Z 00000KT 19/18 A3002 RMK A01 T01940178  RH  090%=      5-min Rain = 0
KSW1 171323Z 13000KT 19/18 A3002 RMK A01 T01940178  RH  090%=      5-min Rain = 0
KSW1 171324Z 13000KT 19/18 A3002 RMK A01 T01940178  RH  090%=      5-min Rain = 0
KSW1 171325Z 13000KT 20/18 A3002 RMK A01 T01950179  RH  091%=      5-min Rain = 0
KSW1 171326Z 13000KT 20/18 A3002 RMK A01 T01960180  RH  091%=      5-min Rain = 0
KSW1 171327Z 13001KT 20/18 A3002 RMK A01 T01960179  RH  090%=      5-min Rain = 0
KSW1 171328Z 13000KT 20/18 A3003 RMK A01 T01960179  RH  090%=      5-min Rain = 0
KSW1 171329Z 00000KT 20/18 A3003 RMK A01 T01970179  RH  090%=      5-min Rain = 0
KSW1 171330Z 00000KT 20/18 A3003 RMK A01 T01970179  RH  089%=      5-min Rain = 0
KSW1 171331Z 21001KT 20/18 A3003 RMK A01 T01970179  RH  090%=      5-min Rain = 0
KSW1 171332Z 22001KT 20/18 A3003 RMK A01 T01970179  RH  090%=      5-min Rain = 0
KSW1 171333Z 25001KT 20/18 A3003 RMK A01 T01970181  RH  091%=      5-min Rain = 0
KSW1 171334Z 26001KT 20/18 A3003 RMK A01 T01970181  RH  091%=      5-min Rain = 0
KSW1 171335Z 27001KT 20/18 A3003 RMK A01 T01970181  RH  091%=      5-min Rain = 0
KSW1 171336Z 00000KT 20/18 A3003 RMK A01 T01970182  RH  091%=      5-min Rain = 0
KSW1 171337Z 00000KT 20/18 A3003 RMK A01 T01980182  RH  091%=      5-min Rain = 0
KSW1 171338Z 00000KT 20/18 A3003 RMK A01 T01990183  RH  091%=      5-min Rain = 0
KSW1 171339Z 18000KT 20/18 A3003 RMK A01 T02000181  RH  089%=      5-min Rain = 0
KSW1 171340Z 19001KT 20/18 A3003 RMK A01 T02000181  RH  089%=      5-min Rain = 0
KSW1 171341Z 21003KT 20/18 A3003 RMK A01 T02010181  RH  088%=      5-min Rain = 0
KSW1 171342Z 21003KT 20/18 A3003 RMK A01 T02010182  RH  089%=      5-min Rain = 0
KSW1 171343Z 22003KT 20/18 A3003 RMK A01 T02000182  RH  089%=      5-min Rain = 0
KSW1 171344Z 22004KT 20/18 A3003 RMK A01 T02000182  RH  089%=      5-min Rain = 0
KSW1 171345Z 22004KT 20/18 A3003 RMK A01 T02000183  RH  090%=      5-min Rain = 0
KSW1 171346Z 21003KT 20/18 A3003 RMK A01 T01990182  RH  090%=      5-min Rain = 0
KSW1 171347Z 21003KT 20/18 A3003 RMK A01 T01990183  RH  091%=      5-min Rain = 0
KSW1 171348Z 21002KT 20/18 A3003 RMK A01 T01990182  RH  090%=      5-min Rain = 0
KSW1 171349Z 21002KT 20/18 A3003 RMK A01 T01990182  RH  090%=      5-min Rain = 0
KSW1 171350Z 21003KT 20/18 A3003 RMK A01 T01990181  RH  089%=      5-min Rain = 0
KSW1 171351Z 21003KT 20/18 A3003 RMK A01 T01990181  RH  089%=      5-min Rain = 0
KSW1 171352Z 20003KT 20/18 A3003 RMK A01 T02000181  RH  089%=      5-min Rain = 0
KSW1 171353Z 19003KT 20/18 A3003 RMK A01 T02000182  RH  089%=      5-min Rain = 0
KSW1 171354Z 19003KT 20/18 A3003 RMK A01 T02010181  RH  088%=      5-min Rain = 0
KSW1 171355Z 19002KT 20/18 A3003 RMK A01 T02010181  RH  088%=      5-min Rain = 0
KSW1 171356Z 19002KT 20/18 A3003 RMK A01 T02010180  RH  088%=      5-min Rain = 0
KSW1 171357Z 19002KT 20/18 A3003 RMK A01 T02010181  RH  088%=      5-min Rain = 0
KSW1 171358Z 19002KT 20/18 A3003 RMK A01 T02020182  RH  088%=      5-min Rain = 0
KSW1 171359Z 20002KT 20/18 A3003 RMK A01 T02030181  RH  087%=      5-min Rain = 0
KSW1 171400Z 20003KT 20/18 A3003 RMK A01 T02040182  RH  087%=      5-min Rain = 0
KSW1 171401Z 18003KT 20/18 A3003 RMK A01 T02040182  RH  087%=      5-min Rain = 0
KSW1 171402Z 19003KT 20/18 A3003 RMK A01 T02040182  RH  087%=      5-min Rain = 0
KSW1 171403Z 19003KT 21/18 A3003 RMK A01 T02050182  RH  087%=      5-min Rain = 0
KSW1 171404Z 17004KT 21/18 A3003 RMK A01 T02050183  RH  087%=      5-min Rain = 0
KSW1 171405Z 19005KT 21/18 A3003 RMK A01 T02060184  RH  087%=      5-min Rain = 0
KSW1 171406Z 18005KT 21/18 A3003 RMK A01 T02070183  RH  087%=      5-min Rain = 0
KSW1 171407Z 19003KT 21/18 A3003 RMK A01 T02070183  RH  086%=      5-min Rain = 0
KSW1 171408Z 17003KT 21/18 A3003 RMK A01 T02080184  RH  086%=      5-min Rain = 0
KSW1 171409Z 16004KT 21/19 A3003 RMK A01 T02090186  RH  087%=      5-min Rain = 0
KSW1 171410Z 16002KT 21/18 A3003 RMK A01 T02100183  RH  085%=      5-min Rain = 0
KSW1 171411Z 16002KT 21/18 A3002 RMK A01 T02100182  RH  084%=      5-min Rain = 0
KSW1 171412Z 18002KT 21/18 A3002 RMK A01 T02110182  RH  084%=      5-min Rain = 0
KSW1 171413Z 18002KT 21/18 A3002 RMK A01 T02100182  RH  084%=      5-min Rain = 0
KSW1 171414Z 19003KT 21/18 A3002 RMK A01 T02110182  RH  084%=      5-min Rain = 0
KSW1 171415Z 16003KT 21/18 A3002 RMK A01 T02110184  RH  084%=      5-min Rain = 0
KSW1 171416Z 17003KT 21/18 A3002 RMK A01 T02120183  RH  084%=      5-min Rain = 0
KSW1 171417Z 17004KT 21/18 A3002 RMK A01 T02120182  RH  083%=      5-min Rain = 0
KSW1 171418Z 16003KT 21/18 A3002 RMK A01 T02120182  RH  083%=      5-min Rain = 0
KSW1 171419Z 16002KT 21/18 A3002 RMK A01 T02110182  RH  083%=      5-min Rain = 0
KSW1 171420Z 14002KT 21/18 A3002 RMK A01 T02110183  RH  084%=      5-min Rain = 0
KSW1 171421Z 14003KT 21/19 A3002 RMK A01 T02130185  RH  084%=      5-min Rain = 0
KSW1 171422Z 14004KT 22/18 A3002 RMK A01 T02150184  RH  083%=      5-min Rain = 0
KSW1 171423Z 14002KT 22/18 A3002 RMK A01 T02160183  RH  082%=      5-min Rain = 0
KSW1 171424Z 11004KT 22/18 A3002 RMK A01 T02170182  RH  081%=      5-min Rain = 0
KSW1 171425Z 11002KT 22/19 A3002 RMK A01 T02180185  RH  081%=      5-min Rain = 0
KSW1 171426Z 13003KT 22/18 A3002 RMK A01 T02200184  RH  080%=      5-min Rain = 0
KSW1 171427Z 11003KT 22/18 A3002 RMK A01 T02210183  RH  079%=      5-min Rain = 0
KSW1 171428Z 09003KT 22/18 A3002 RMK A01 T02210182  RH  078%=      5-min Rain = 0
KSW1 171429Z 10003KT 22/18 A3002 RMK A01 T02230184  RH  079%=      5-min Rain = 0
KSW1 171430Z 11004KT 23/18 A3002 RMK A01 T02250184  RH  077%=      5-min Rain = 0
KSW1 171431Z 11004KT 23/18 A3002 RMK A01 T02260180  RH  075%=      5-min Rain = 0
KSW1 171432Z 09004KT 23/18 A3002 RMK A01 T02260176  RH  073%=      5-min Rain = 0
KSW1 171433Z 10005KT 23/18 A3003 RMK A01 T02260176  RH  073%=      5-min Rain = 0
KSW1 171434Z 12004KT 23/18 A3003 RMK A01 T02260176  RH  073%=      5-min Rain = 0
KSW1 171435Z 14003KT 23/18 A3003 RMK A01 T02270178  RH  074%=      5-min Rain = 0
KSW1 171436Z 13002KT 23/18 A3003 RMK A01 T02280179  RH  074%=      5-min Rain = 0
KSW1 171437Z 13004KT 23/18 A3003 RMK A01 T02300180  RH  073%=      5-min Rain = 0
KSW1 171438Z 13005KT 23/18 A3003 RMK A01 T02330177  RH  071%=      5-min Rain = 0
KSW1 171439Z 08003KT 23/18 A3003 RMK A01 T02340176  RH  070%=      5-min Rain = 0
KSW1 171440Z 10004KT 23/17 A3003 RMK A01 T02340174  RH  069%=      5-min Rain = 0
KSW1 171441Z 09005KT 24/17 A3003 RMK A01 T02350169  RH  066%=      5-min Rain = 0
KSW1 171442Z 09004KT 24/17 A3003 RMK A01 T02350168  RH  066%=      5-min Rain = 0
KSW1 171443Z 10005KT 24/17 A3003 RMK A01 T02350172  RH  068%=      5-min Rain = 0
KSW1 171444Z 09004KT 24/17 A3003 RMK A01 T02350174  RH  069%=      5-min Rain = 0
KSW1 171445Z 09004KT 23/17 A3003 RMK A01 T02340173  RH  069%=      5-min Rain = 0
KSW1 171446Z 06003KT 24/17 A3003 RMK A01 T02350173  RH  068%=      5-min Rain = 0
KSW1 171447Z 08004KT 24/17 A3003 RMK A01 T02350173  RH  068%=      5-min Rain = 0
KSW1 171448Z 10004KT 24/17 A3003 RMK A01 T02370168  RH  065%=      5-min Rain = 0
KSW1 171449Z 07003KT 24/17 A3003 RMK A01 T02380171  RH  066%=      5-min Rain = 0
KSW1 171450Z 09003KT 24/17 A3003 RMK A01 T02390170  RH  065%=      5-min Rain = 0
KSW1 171451Z 09002KT 24/17 A3003 RMK A01 T02400169  RH  064%=      5-min Rain = 0
KSW1 171452Z 14001KT 24/17 A3003 RMK A01 T02410168  RH  064%=      5-min Rain = 0
KSW1 171453Z 14004KT 24/17 A3003 RMK A01 T02420165  RH  062%=      5-min Rain = 0
KSW1 171454Z 10003KT 24/17 A3003 RMK A01 T02430168  RH  063%=      5-min Rain = 0
KSW1 171455Z 08004KT 24/17 A3003 RMK A01 T02440169  RH  063%=      5-min Rain = 0
KSW1 171456Z 09005KT 25/17 A3003 RMK A01 T02470166  RH  061%=      5-min Rain = 0
KSW1 171457Z 08006KT 25/16 A3003 RMK A01 T02490162  RH  059%=      5-min Rain = 0
KSW1 171458Z 09005KT 25/16 A3003 RMK A01 T02470159  RH  058%=      5-min Rain = 0
KSW1 171459Z 08004KT 25/16 A3003 RMK A01 T02450159  RH  059%=      5-min Rain = 0
KSW1 171500Z 09002KT 24/16 A3003 RMK A01 T02430160  RH  060%=      5-min Rain = 0
KSW1 171501Z 12002KT 24/16 A3003 RMK A01 T02420162  RH  061%=      5-min Rain = 0
KSW1 171502Z 11003KT 24/16 A3003 RMK A01 T02430164  RH  061%=      5-min Rain = 0
KSW1 171503Z 11005KT 25/16 A3003 RMK A01 T02450164  RH  061%=      5-min Rain = 0
KSW1 171504Z 08004KT 25/16 A3003 RMK A01 T02460159  RH  058%=      5-min Rain = 0
KSW1 171505Z 07004KT 25/16 A3003 RMK A01 T02470159  RH  058%=      5-min Rain = 0
KSW1 171506Z 08003KT 25/16 A3003 RMK A01 T02470162  RH  059%=      5-min Rain = 0
KSW1 171507Z 09002KT 25/16 A3003 RMK A01 T02490163  RH  059%=      5-min Rain = 0
KSW1 171508Z 06005KT 25/17 A3003 RMK A01 T02510165  RH  059%=      5-min Rain = 0
KSW1 171509Z 06004KT 25/16 A3003 RMK A01 T02510161  RH  058%=      5-min Rain = 0
KSW1 171510Z 06004KT 25/16 A3003 RMK A01 T02490160  RH  058%=      5-min Rain = 0
KSW1 171511Z 10006KT 25/17 A3003 RMK A01 T02490165  RH  059%=      5-min Rain = 0
KSW1 171512Z 09005KT 25/16 A3003 RMK A01 T02510159  RH  057%=      5-min Rain = 0
KSW1 171513Z 09004KT 25/16 A3003 RMK A01 T02510156  RH  056%=      5-min Rain = 0
KSW1 171514Z 11007KT 25/15 A3004 RMK A01 T02510153  RH  055%=      5-min Rain = 0
KSW1 171515Z 12007KT 25/15 A3004 RMK A01 T02520151  RH  053%=      5-min Rain = 0
KSW1 171516Z 11007KT 25/15 A3004 RMK A01 T02520150  RH  053%=      5-min Rain = 0
KSW1 171517Z 10006KT 25/15 A3004 RMK A01 T02500149  RH  053%=      5-min Rain = 0
KSW1 171518Z 11005KT 25/15 A3004 RMK A01 T02500150  RH  054%=      5-min Rain = 0
KSW1 171519Z 10004KT 25/15 A3004 RMK A01 T02490150  RH  054%=      5-min Rain = 0
KSW1 171520Z 10006KT 25/16 A3004 RMK A01 T02500156  RH  056%=      5-min Rain = 0
KSW1 171521Z 14004KT 25/14 A3004 RMK A01 T02520143  RH  051%=      5-min Rain = 0
KSW1 171522Z 11005KT 25/14 A3003 RMK A01 T02530142  RH  050%=      5-min Rain = 0
KSW1 171523Z 12007KT 26/14 A3003 RMK A01 T02550144  RH  050%=      5-min Rain = 0
KSW1 171524Z 11006KT 26/14 A3003 RMK A01 T02560139  RH  049%=      5-min Rain = 0
KSW1 171525Z 10004KT 25/14 A3003 RMK A01 T02540144  RH  051%=      5-min Rain = 0
KSW1 171526Z 12003KT 26/15 A3003 RMK A01 T02560147  RH  051%=      5-min Rain = 0
KSW1 171527Z 10004KT 26/15 A3003 RMK A01 T02590149  RH  050%=      5-min Rain = 0
KSW1 171528Z 08003KT 26/15 A3003 RMK A01 T02610149  RH  050%=      5-min Rain = 0
KSW1 171529Z 06005KT 26/15 A3003 RMK A01 T02610146  RH  049%=      5-min Rain = 0
KSW1 171530Z 05003KT 26/14 A3003 RMK A01 T02590144  RH  049%=      5-min Rain = 0
KSW1 171531Z 10005KT 26/14 A3003 RMK A01 T02580140  RH  048%=      5-min Rain = 0
KSW1 171532Z 11005KT 26/13 A3003 RMK A01 T02580133  RH  046%=      5-min Rain = 0
KSW1 171533Z 11004KT 26/14 A3003 RMK A01 T02570135  RH  047%=      5-min Rain = 0
KSW1 171534Z 11006KT 26/14 A3003 RMK A01 T02570144  RH  050%=      5-min Rain = 0
KSW1 171535Z 14004KT 26/15 A3003 RMK A01 T02590146  RH  050%=      5-min Rain = 0
KSW1 171536Z 14005KT 26/15 A3003 RMK A01 T02600147  RH  050%=      5-min Rain = 0
KSW1 171537Z 12006KT 26/15 A3003 RMK A01 T02600150  RH  051%=      5-min Rain = 0
KSW1 171538Z 11006KT 26/14 A3003 RMK A01 T02610139  RH  047%=      5-min Rain = 0
KSW1 171539Z 11006KT 26/14 A3003 RMK A01 T02610139  RH  047%=      5-min Rain = 0
KSW1 171540Z 13007KT 26/14 A3003 RMK A01 T02620137  RH  046%=      5-min Rain = 0
KSW1 171541Z 13006KT 26/13 A3003 RMK A01 T02620132  RH  044%=      5-min Rain = 0
KSW1 171542Z 11006KT 26/13 A3003 RMK A01 T02610131  RH  045%=      5-min Rain = 0
KSW1 171543Z 09005KT 26/13 A3003 RMK A01 T02610133  RH  045%=      5-min Rain = 0
KSW1 171544Z 09005KT 26/13 A3003 RMK A01 T02630133  RH  045%=      5-min Rain = 0
KSW1 171545Z 11004KT 26/13 A3003 RMK A01 T02620130  RH  044%=      5-min Rain = 0
KSW1 171546Z 09006KT 26/13 A3003 RMK A01 T02610131  RH  045%=      5-min Rain = 0
KSW1 171547Z 07005KT 26/13 A3003 RMK A01 T02620134  RH  045%=      5-min Rain = 0
KSW1 171548Z 09007KT 26/14 A3003 RMK A01 T02640137  RH  045%=      5-min Rain = 0
KSW1 171549Z 08006KT 27/13 A3003 RMK A01 T02660130  RH  043%=      5-min Rain = 0
KSW1 171550Z 09006KT 26/13 A3003 RMK A01 T02630130  RH  044%=      5-min Rain = 0
KSW1 171551Z 09005KT 26/13 A3003 RMK A01 T02630125  RH  042%=      5-min Rain = 0
KSW1 171552Z 08004KT 26/13 A3003 RMK A01 T02640127  RH  043%=      5-min Rain = 0
KSW1 171553Z 09005KT 27/13 A3003 RMK A01 T02650126  RH  042%=      5-min Rain = 0
KSW1 171554Z 08005KT 27/13 A3003 RMK A01 T02660125  RH  042%=      5-min Rain = 0
KSW1 171555Z 11006KT 27/12 A3003 RMK A01 T02660123  RH  041%=      5-min Rain = 0
KSW1 171556Z 10004KT 27/13 A3003 RMK A01 T02660127  RH  042%=      5-min Rain = 0
KSW1 171557Z 06005KT 27/14 A3003 RMK A01 T02660136  RH  045%=      5-min Rain = 0
KSW1 171558Z 06006KT 27/13 A3003 RMK A01 T02680134  RH  044%=      5-min Rain = 0
KSW1 171559Z 09006KT 27/14 A3003 RMK A01 T02680135  RH  044%=      5-min Rain = 0
KSW1 171600Z 12005KT 27/14 A3003 RMK A01 T02670136  RH  044%=      5-min Rain = 0
KSW1 171601Z 12006KT 27/13 A3003 RMK A01 T02660132  RH  043%=      5-min Rain = 0
KSW1 171602Z 10005KT 27/13 A3003 RMK A01 T02650134  RH  044%=      5-min Rain = 0
KSW1 171603Z 11004KT 26/13 A3003 RMK A01 T02640133  RH  044%=      5-min Rain = 0
KSW1 171604Z 06002KT 26/14 A3003 RMK A01 T02640137  RH  045%=      5-min Rain = 0
KSW1 171605Z 05002KT 27/13 A3003 RMK A01 T02650132  RH  044%=      5-min Rain = 0
KSW1 171606Z 07006KT 27/14 A3003 RMK A01 T02660136  RH  045%=      5-min Rain = 0
KSW1 171607Z 07007KT 27/14 A3003 RMK A01 T02670137  RH  045%=      5-min Rain = 0
KSW1 171608Z 07004KT 27/14 A3003 RMK A01 T02690138  RH  045%=      5-min Rain = 0
KSW1 171609Z 09003KT 27/13 A3003 RMK A01 T02690129  RH  042%=      5-min Rain = 0
KSW1 171610Z 09006KT 27/13 A3003 RMK A01 T02660133  RH  044%=      5-min Rain = 0
KSW1 171611Z 09007KT 27/13 A3003 RMK A01 T02670133  RH  044%=      5-min Rain = 0
KSW1 171612Z 09005KT 27/13 A3003 RMK A01 T02680131  RH  043%=      5-min Rain = 0
KSW1 171613Z 10005KT 27/13 A3003 RMK A01 T02680134  RH  043%=      5-min Rain = 0
KSW1 171614Z 11004KT 27/13 A3003 RMK A01 T02680130  RH  042%=      5-min Rain = 0
KSW1 171615Z 11004KT 27/13 A3003 RMK A01 T02680131  RH  043%=      5-min Rain = 0
KSW1 171616Z 05004KT 27/13 A3003 RMK A01 T02670133  RH  044%=      5-min Rain = 0
KSW1 171617Z 06004KT 27/13 A3003 RMK A01 T02660132  RH  044%=      5-min Rain = 0
KSW1 171618Z 09003KT 27/13 A3003 RMK A01 T02650133  RH  044%=      5-min Rain = 0
KSW1 171619Z 10003KT 27/13 A3003 RMK A01 T02650133  RH  044%=      5-min Rain = 0
KSW1 171620Z 08004KT 27/13 A3003 RMK A01 T02660134  RH  044%=      5-min Rain = 0
KSW1 171621Z 08006KT 27/14 A3003 RMK A01 T02670135  RH  044%=      5-min Rain = 0
KSW1 171622Z 08006KT 27/13 A3003 RMK A01 T02680134  RH  044%=      5-min Rain = 0
KSW1 171623Z 10004KT 27/13 A3003 RMK A01 T02680131  RH  043%=      5-min Rain = 0
KSW1 171624Z 10006KT 27/14 A3003 RMK A01 T02660136  RH  045%=      5-min Rain = 0
KSW1 171625Z 08004KT 27/14 A3003 RMK A01 T02690135  RH  044%=      5-min Rain = 0
KSW1 171626Z 09004KT 27/13 A3003 RMK A01 T02700133  RH  043%=      5-min Rain = 0
KSW1 171627Z 08007KT 27/14 A3003 RMK A01 T02700138  RH  044%=      5-min Rain = 0
KSW1 171628Z 08004KT 27/14 A3003 RMK A01 T02720136  RH  043%=      5-min Rain = 0
KSW1 171629Z 09003KT 27/13 A3003 RMK A01 T02720134  RH  043%=      5-min Rain = 0
KSW1 171630Z 07002KT 27/14 A3003 RMK A01 T02710139  RH  044%=      5-min Rain = 0
KSW1 171631Z 06002KT 27/14 A3003 RMK A01 T02730143  RH  045%=      5-min Rain = 0
KSW1 171632Z 09000KT 27/14 A3003 RMK A01 T02740135  RH  042%=      5-min Rain = 0
KSW1 171633Z 05003KT 27/14 A3003 RMK A01 T02720140  RH  044%=      5-min Rain = 0
KSW1 171634Z 05006KT 27/15 A3003 RMK A01 T02720146  RH  046%=      5-min Rain = 0
KSW1 171635Z 07008KT 27/15 A3003 RMK A01 T02720148  RH  047%=      5-min Rain = 0
KSW1 171636Z 07007KT 27/15 A3003 RMK A01 T02720145  RH  046%=      5-min Rain = 0
KSW1 171637Z 06006KT 27/15 A3003 RMK A01 T02720146  RH  046%=      5-min Rain = 0
KSW1 171638Z 06006KT 27/14 A3003 RMK A01 T02720144  RH  045%=      5-min Rain = 0
KSW1 171639Z 06006KT 27/15 A3003 RMK A01 T02700147  RH  047%=      5-min Rain = 0
KSW1 171640Z 04005KT 27/15 A3003 RMK A01 T02710149  RH  047%=      5-min Rain = 0
KSW1 171641Z 06007KT 27/15 A3003 RMK A01 T02720149  RH  047%=      5-min Rain = 0
KSW1 171642Z 07005KT 27/15 A3003 RMK A01 T02730145  RH  045%=      5-min Rain = 0
KSW1 171643Z 06004KT 27/15 A3003 RMK A01 T02720146  RH  046%=      5-min Rain = 0
KSW1 171644Z 07007KT 27/15 A3003 RMK A01 T02720147  RH  046%=      5-min Rain = 0
KSW1 171645Z 06005KT 27/14 A3003 RMK A01 T02730138  RH  044%=      5-min Rain = 0
KSW1 171646Z 06007KT 27/14 A3003 RMK A01 T02730142  RH  045%=      5-min Rain = 0
KSW1 171647Z 05004KT 27/14 A3003 RMK A01 T02730143  RH  045%=      5-min Rain = 0
KSW1 171648Z 04005KT 27/15 A3003 RMK A01 T02740148  RH  046%=      5-min Rain = 0
KSW1 171649Z 05004KT 28/15 A3003 RMK A01 T02760150  RH  046%=      5-min Rain = 0
KSW1 171650Z 04006KT 28/15 A3003 RMK A01 T02770146  RH  045%=      5-min Rain = 0
KSW1 171651Z 04003KT 28/14 A3003 RMK A01 T02750142  RH  044%=      5-min Rain = 0
KSW1 171652Z 01003KT 27/14 A3003 RMK A01 T02730142  RH  045%=      5-min Rain = 0
KSW1 171653Z 05002KT 27/15 A3003 RMK A01 T02720147  RH  046%=      5-min Rain = 0
KSW1 171654Z 09005KT 27/15 A3003 RMK A01 T02740152  RH  047%=      5-min Rain = 0
KSW1 171655Z 10004KT 28/15 A3003 RMK A01 T02780152  RH  046%=      5-min Rain = 0
KSW1 171656Z 08004KT 28/15 A3003 RMK A01 T02790149  RH  045%=      5-min Rain = 0
KSW1 171657Z 06003KT 28/15 A3003 RMK A01 T02780153  RH  046%=      5-min Rain = 0
KSW1 171658Z 03003KT 28/15 A3003 RMK A01 T02780149  RH  045%=      5-min Rain = 0
KSW1 171659Z 05002KT 28/15 A3003 RMK A01 T02760148  RH  045%=      5-min Rain = 0
KSW1 171700Z 09001KT 28/15 A3003 RMK A01 T02750149  RH  046%=      5-min Rain = 0
KSW1 171701Z 08005KT 28/15 A3003 RMK A01 T02750150  RH  046%=      5-min Rain = 0
KSW1 171702Z 07006KT 28/15 A3003 RMK A01 T02770151  RH  046%=      5-min Rain = 0
KSW1 171703Z 06006KT 28/15 A3003 RMK A01 T02780147  RH  045%=      5-min Rain = 0
KSW1 171704Z 05004KT 28/15 A3003 RMK A01 T02780147  RH  045%=      5-min Rain = 0
KSW1 171705Z 04004KT 28/15 A3003 RMK A01 T02770147  RH  045%=      5-min Rain = 0
KSW1 171706Z 05007KT 28/15 A3003 RMK A01 T02750149  RH  046%=      5-min Rain = 0
KSW1 171707Z 04007KT 28/14 A3003 RMK A01 T02760142  RH  044%=      5-min Rain = 0
KSW1 171708Z 04007KT 28/15 A3003 RMK A01 T02750148  RH  046%=      5-min Rain = 0
KSW1 171709Z 06006KT 28/15 A3003 RMK A01 T02770146  RH  045%=      5-min Rain = 0
KSW1 171710Z 04006KT 28/14 A3003 RMK A01 T02790142  RH  043%=      5-min Rain = 0
KSW1 171711Z 04005KT 28/14 A3003 RMK A01 T02790143  RH  043%=      5-min Rain = 0
KSW1 171712Z 06003KT 28/14 A3003 RMK A01 T02770138  RH  043%=      5-min Rain = 0
KSW1 171713Z 07005KT 28/14 A3003 RMK A01 T02750144  RH  045%=      5-min Rain = 0
KSW1 171714Z 10004KT 28/14 A3003 RMK A01 T02760137  RH  043%=      5-min Rain = 0
KSW1 171715Z 08003KT 28/14 A3003 RMK A01 T02760143  RH  044%=      5-min Rain = 0
KSW1 171716Z 06005KT 28/15 A3003 RMK A01 T02790153  RH  046%=      5-min Rain = 0
KSW1 171717Z 05004KT 28/15 A3003 RMK A01 T02820149  RH  044%=      5-min Rain = 0
KSW1 171718Z 03002KT 28/14 A3003 RMK A01 T02810144  RH  043%=      5-min Rain = 0
KSW1 171719Z 05002KT 28/15 A3003 RMK A01 T02780149  RH  045%=      5-min Rain = 0
KSW1 171720Z 05006KT 28/15 A3003 RMK A01 T02790148  RH  045%=      5-min Rain = 0
KSW1 171721Z 05007KT 28/15 A3003 RMK A01 T02810145  RH  044%=      5-min Rain = 0
KSW1 171722Z 07008KT 28/15 A3003 RMK A01 T02820150  RH  044%=      5-min Rain = 0
KSW1 171723Z 07008KT 28/15 A3003 RMK A01 T02840148  RH  043%=      5-min Rain = 0
KSW1 171724Z 05006KT 28/14 A3004 RMK A01 T02830144  RH  043%=      5-min Rain = 0
KSW1 171725Z 06007KT 28/15 A3004 RMK A01 T02810147  RH  044%=      5-min Rain = 0
KSW1 171726Z 07005KT 28/15 A3004 RMK A01 T02810146  RH  044%=      5-min Rain = 0
KSW1 171727Z 11005KT 28/14 A3003 RMK A01 T02810143  RH  043%=      5-min Rain = 0
KSW1 171728Z 03004KT 28/15 A3003 RMK A01 T02810150  RH  045%=      5-min Rain = 0
KSW1 171729Z 03006KT 28/15 A3003 RMK A01 T02820149  RH  044%=      5-min Rain = 0
KSW1 171730Z 05006KT 28/15 A3003 RMK A01 T02810150  RH  045%=      5-min Rain = 0
KSW1 171731Z 07007KT 28/15 A3003 RMK A01 T02810151  RH  045%=      5-min Rain = 0
KSW1 171732Z 07007KT 28/15 A3003 RMK A01 T02820147  RH  044%=      5-min Rain = 0
KSW1 171733Z 06008KT 28/15 A3004 RMK A01 T02810147  RH  044%=      5-min Rain = 0
KSW1 171734Z 06003KT 28/15 A3004 RMK A01 T02790145  RH  044%=      5-min Rain = 0
KSW1 171735Z 07006KT 28/15 A3004 RMK A01 T02760148  RH  045%=      5-min Rain = 0
KSW1 171736Z 06005KT 28/15 A3004 RMK A01 T02770148  RH  045%=      5-min Rain = 0
KSW1 171737Z 06005KT 28/14 A3004 RMK A01 T02770143  RH  044%=      5-min Rain = 0
KSW1 171738Z 07006KT 28/15 A3004 RMK A01 T02750148  RH  046%=      5-min Rain = 0
KSW1 171739Z 07007KT 28/15 A3004 RMK A01 T02770146  RH  045%=      5-min Rain = 0
KSW1 171740Z 06006KT 28/14 A3004 RMK A01 T02790142  RH  043%=      5-min Rain = 0
KSW1 171741Z 05005KT 28/14 A3004 RMK A01 T02770142  RH  043%=      5-min Rain = 0
KSW1 171742Z 07004KT 28/14 A3004 RMK A01 T02770142  RH  044%=      5-min Rain = 0
KSW1 171743Z 10001KT 28/15 A3004 RMK A01 T02770145  RH  045%=      5-min Rain = 0
KSW1 171744Z 06002KT 28/15 A3004 RMK A01 T02780145  RH  044%=      5-min Rain = 0
KSW1 171745Z 06006KT 28/15 A3004 RMK A01 T02790148  RH  045%=      5-min Rain = 0
KSW1 171746Z 09004KT 28/15 A3004 RMK A01 T02800145  RH  044%=      5-min Rain = 0
KSW1 171747Z 07004KT 28/14 A3003 RMK A01 T02800143  RH  043%=      5-min Rain = 0
KSW1 171748Z 06005KT 28/15 A3003 RMK A01 T02810152  RH  045%=      5-min Rain = 0
KSW1 171749Z 06007KT 29/15 A3003 RMK A01 T02850151  RH  044%=      5-min Rain = 0
KSW1 171750Z 07006KT 29/15 A3003 RMK A01 T02850150  RH  044%=      5-min Rain = 0
KSW1 171751Z 06003KT 28/15 A3003 RMK A01 T02840147  RH  043%=      5-min Rain = 0
KSW1 171752Z 10002KT 28/14 A3003 RMK A01 T02830141  RH  042%=      5-min Rain = 0
KSW1 171753Z 07002KT 28/15 A3003 RMK A01 T02810146  RH  044%=      5-min Rain = 0
KSW1 171754Z 04006KT 28/15 A3003 RMK A01 T02830152  RH  045%=      5-min Rain = 0
KSW1 171755Z 04006KT 29/15 A3003 RMK A01 T02860152  RH  044%=      5-min Rain = 0
KSW1 171756Z 02004KT 29/15 A3003 RMK A01 T02870148  RH  043%=      5-min Rain = 0
KSW1 171757Z 05006KT 29/15 A3003 RMK A01 T02850149  RH  043%=      5-min Rain = 0
KSW1 171758Z 06005KT 29/15 A3003 RMK A01 T02860148  RH  043%=      5-min Rain = 0
KSW1 171759Z 07002KT 29/15 A3003 RMK A01 T02860146  RH  043%=      5-min Rain = 0
KSW1 171800Z 07005KT 29/15 A3003 RMK A01 T02850149  RH  044%=      5-min Rain = 0
KSW1 171801Z 08006KT 29/15 A3003 RMK A01 T02860147  RH  043%=      5-min Rain = 0
KSW1 171802Z 09006KT 29/15 A3003 RMK A01 T02850148  RH  043%=      5-min Rain = 0
KSW1 171803Z 06004KT 29/15 A3003 RMK A01 T02860150  RH  044%=      5-min Rain = 0
KSW1 171804Z 04004KT 29/15 A3003 RMK A01 T02860145  RH  042%=      5-min Rain = 0
KSW1 171805Z 02002KT 29/15 A3003 RMK A01 T02850145  RH  043%=      5-min Rain = 0
KSW1 171806Z 07001KT 29/15 A3003 RMK A01 T02850147  RH  043%=      5-min Rain = 0
KSW1 171807Z 06006KT 29/15 A3003 RMK A01 T02850146  RH  042%=      5-min Rain = 0
KSW1 171808Z 03006KT 29/15 A3003 RMK A01 T02860148  RH  043%=      5-min Rain = 0
KSW1 171809Z 02006KT 29/15 A3003 RMK A01 T02870146  RH  042%=      5-min Rain = 0
KSW1 171810Z 03004KT 29/14 A3003 RMK A01 T02870143  RH  041%=      5-min Rain = 0
KSW1 171811Z 01004KT 29/15 A3003 RMK A01 T02850145  RH  042%=      5-min Rain = 0
KSW1 171812Z 33003KT 28/14 A3003 RMK A01 T02840144  RH  042%=      5-min Rain = 0
KSW1 171813Z 33003KT 28/14 A3003 RMK A01 T02830142  RH  042%=      5-min Rain = 0
KSW1 171814Z 36003KT 28/15 A3003 RMK A01 T02820149  RH  044%=      5-min Rain = 0
KSW1 171815Z 05002KT 28/15 A3003 RMK A01 T02840147  RH  043%=      5-min Rain = 0
KSW1 171816Z 00000KT 28/15 A3003 RMK A01 T02840145  RH  043%=      5-min Rain = 0
KSW1 171817Z 07002KT 28/15 A3003 RMK A01 T02840150  RH  044%=      5-min Rain = 0
KSW1 171818Z 08005KT 29/17 A3003 RMK A01 T02870167  RH  048%=      5-min Rain = 0
KSW1 171819Z 07005KT 29/16 A3003 RMK A01 T02910161  RH  045%=      5-min Rain = 0
KSW1 171820Z 07008KT 29/16 A3003 RMK A01 T02910162  RH  046%=      5-min Rain = 0
KSW1 171821Z 07006KT 29/16 A3003 RMK A01 T02900161  RH  045%=      5-min Rain = 0
KSW1 171822Z 10005KT 29/16 A3003 RMK A01 T02890160  RH  046%=      5-min Rain = 0
KSW1 171823Z 05007KT 29/17 A3003 RMK A01 T02880165  RH  047%=      5-min Rain = 0
KSW1 171824Z 04008KT 29/17 A3003 RMK A01 T02860165  RH  048%=      5-min Rain = 0
KSW1 171825Z 03006KT 29/17 A3003 RMK A01 T02860165  RH  048%=      5-min Rain = 0
KSW1 171826Z 04007KT 29/17 A3003 RMK A01 T02870168  RH  049%=      5-min Rain = 0
KSW1 171827Z 06007KT 29/17 A3003 RMK A01 T02880165  RH  047%=      5-min Rain = 0
KSW1 171828Z 02008KT 29/16 A3003 RMK A01 T02890163  RH  046%=      5-min Rain = 0
KSW1 171829Z 04006KT 29/17 A3003 RMK A01 T02880165  RH  047%=      5-min Rain = 0
KSW1 171830Z 06006KT 29/16 A3003 RMK A01 T02880163  RH  047%=      5-min Rain = 0
KSW1 171831Z 07004KT 29/16 A3003 RMK A01 T02880162  RH  046%=      5-min Rain = 0
KSW1 171832Z 07002KT 29/16 A3003 RMK A01 T02860157  RH  046%=      5-min Rain = 0
KSW1 171833Z 32001KT 29/16 A3002 RMK A01 T02850156  RH  045%=      5-min Rain = 0
KSW1 171834Z 05003KT 28/16 A3002 RMK A01 T02840160  RH  047%=      5-min Rain = 0
KSW1 171835Z 05006KT 28/16 A3002 RMK A01 T02840160  RH  047%=      5-min Rain = 0
KSW1 171836Z 05004KT 28/16 A3002 RMK A01 T02840159  RH  047%=      5-min Rain = 0
KSW1 171837Z 03002KT 28/16 A3002 RMK A01 T02830158  RH  047%=      5-min Rain = 0
KSW1 171838Z 03005KT 28/16 A3002 RMK A01 T02840162  RH  048%=      5-min Rain = 0
KSW1 171839Z 00003KT 29/16 A3002 RMK A01 T02850158  RH  046%=      5-min Rain = 0
KSW1 171840Z 36003KT 29/16 A3002 RMK A01 T02850158  RH  046%=      5-min Rain = 0
KSW1 171841Z 03003KT 29/16 A3002 RMK A01 T02850161  RH  047%=      5-min Rain = 0
KSW1 171842Z 04005KT 29/17 A3002 RMK A01 T02850165  RH  048%=      5-min Rain = 0
KSW1 171843Z 05005KT 29/16 A3002 RMK A01 T02880162  RH  047%=      5-min Rain = 0
KSW1 171844Z 06006KT 29/16 A3002 RMK A01 T02870161  RH  046%=      5-min Rain = 0
KSW1 171845Z 02005KT 29/16 A3002 RMK A01 T02850159  RH  046%=      5-min Rain = 0
KSW1 171846Z 35005KT 29/16 A3002 RMK A01 T02850158  RH  046%=      5-min Rain = 0
KSW1 171847Z 32004KT 28/16 A3002 RMK A01 T02840158  RH  046%=      5-min Rain = 0
KSW1 171848Z 32004KT 28/16 A3002 RMK A01 T02830157  RH  046%=      5-min Rain = 0
KSW1 171849Z 32004KT 28/16 A3002 RMK A01 T02840157  RH  046%=      5-min Rain = 0
KSW1 171850Z 33005KT 28/16 A3002 RMK A01 T02840158  RH  046%=      5-min Rain = 0
KSW1 171851Z 35006KT 29/16 A3002 RMK A01 T02850159  RH  046%=      5-min Rain = 0
KSW1 171852Z 33003KT 29/16 A3002 RMK A01 T02850158  RH  046%=      5-min Rain = 0
KSW1 171853Z 04006KT 29/16 A3002 RMK A01 T02850162  RH  047%=      5-min Rain = 0
KSW1 171854Z 04004KT 29/16 A3002 RMK A01 T02860159  RH  046%=      5-min Rain = 0
KSW1 171855Z 05004KT 29/16 A3002 RMK A01 T02850158  RH  046%=      5-min Rain = 0
KSW1 171856Z 04002KT 29/16 A3002 RMK A01 T02850161  RH  047%=      5-min Rain = 0
KSW1 171857Z 11001KT 29/16 A3002 RMK A01 T02850161  RH  047%=      5-min Rain = 0
KSW1 171858Z 01001KT 29/16 A3002 RMK A01 T02870161  RH  046%=      5-min Rain = 0
KSW1 171859Z 02003KT 29/16 A3001 RMK A01 T02880161  RH  046%=      5-min Rain = 0
KSW1 171900Z 05005KT 29/17 A3001 RMK A01 T02900166  RH  047%=      5-min Rain = 0
KSW1 171901Z 04006KT 29/16 A3001 RMK A01 T02920164  RH  046%=      5-min Rain = 0
KSW1 171902Z 01004KT 29/16 A3001 RMK A01 T02920161  RH  045%=      5-min Rain = 0
KSW1 171903Z 30003KT 29/16 A3001 RMK A01 T02900159  RH  045%=      5-min Rain = 0
KSW1 171904Z 32003KT 29/17 A3001 RMK A01 T02890165  RH  047%=      5-min Rain = 0
KSW1 171905Z 10007KT 29/17 A3001 RMK A01 T02910165  RH  046%=      5-min Rain = 0
KSW1 171906Z 10006KT 29/16 A3001 RMK A01 T02940162  RH  045%=      5-min Rain = 0
KSW1 171907Z 09007KT 30/16 A3001 RMK A01 T02950164  RH  045%=      5-min Rain = 0
KSW1 171908Z 10008KT 30/17 A3001 RMK A01 T02970166  RH  045%=      5-min Rain = 0
KSW1 171909Z 12008KT 30/17 A3001 RMK A01 T03000165  RH  044%=      5-min Rain = 0
KSW1 171910Z 12006KT 30/16 A3001 RMK A01 T03000163  RH  044%=      5-min Rain = 0
KSW1 171911Z 12008KT 30/16 A3001 RMK A01 T02980164  RH  044%=      5-min Rain = 0
KSW1 171912Z 12005KT 30/16 A3001 RMK A01 T02960158  RH  043%=      5-min Rain = 0
KSW1 171913Z 14006KT 29/17 A3001 RMK A01 T02930165  RH  046%=      5-min Rain = 0
KSW1 171914Z 15004KT 29/16 A3001 RMK A01 T02940161  RH  045%=      5-min Rain = 0
KSW1 171915Z 16005KT 30/16 A3001 RMK A01 T02950161  RH  044%=      5-min Rain = 0
KSW1 171916Z 14004KT 30/16 A3001 RMK A01 T02950164  RH  045%=      5-min Rain = 0
KSW1 171917Z 16003KT 30/17 A3001 RMK A01 T02970166  RH  045%=      5-min Rain = 0
KSW1 171918Z 10004KT 30/17 A3001 RMK A01 T03010165  RH  044%=      5-min Rain = 0
KSW1 171919Z 06004KT 30/17 A3001 RMK A01 T03020166  RH  044%=      5-min Rain = 0
KSW1 171920Z 09006KT 30/16 A3001 RMK A01 T03030162  RH  043%=      5-min Rain = 0
KSW1 171921Z 07007KT 30/16 A3001 RMK A01 T03030163  RH  043%=      5-min Rain = 0
KSW1 171922Z 08007KT 30/16 A3001 RMK A01 T03010160  RH  043%=      5-min Rain = 0
KSW1 171923Z 08005KT 30/16 A3001 RMK A01 T02980158  RH  043%=      5-min Rain = 0
KSW1 171924Z 08007KT 30/16 A3001 RMK A01 T02970162  RH  044%=      5-min Rain = 0
KSW1 171925Z 09005KT 30/16 A3001 RMK A01 T02970158  RH  043%=      5-min Rain = 0
KSW1 171926Z 09004KT 30/16 A3001 RMK A01 T02960162  RH  044%=      5-min Rain = 0
KSW1 171927Z 08007KT 30/17 A3001 RMK A01 T02970165  RH  045%=      5-min Rain = 0
KSW1 171928Z 07008KT 30/16 A3001 RMK A01 T03000162  RH  043%=      5-min Rain = 0
KSW1 171929Z 07005KT 30/16 A3001 RMK A01 T03000164  RH  044%=      5-min Rain = 0
KSW1 171930Z 09004KT 30/16 A3001 RMK A01 T02990163  RH  044%=      5-min Rain = 0
KSW1 171931Z 05005KT 30/16 A3001 RMK A01 T02990160  RH  043%=      5-min Rain = 0
KSW1 171932Z 04006KT 30/16 A3001 RMK A01 T02960164  RH  045%=      5-min Rain = 0
KSW1 171933Z 03005KT 30/16 A3001 RMK A01 T02970159  RH  043%=      5-min Rain = 0
KSW1 171934Z 02003KT 29/16 A3001 RMK A01 T02940162  RH  045%=      5-min Rain = 0
KSW1 171935Z 03006KT 29/16 A3001 RMK A01 T02930159  RH  044%=      5-min Rain = 0
KSW1 171936Z 34003KT 29/16 A3001 RMK A01 T02920158  RH  044%=      5-min Rain = 0
KSW1 171937Z 31004KT 29/16 A3001 RMK A01 T02910158  RH  044%=      5-min Rain = 0
KSW1 171938Z 04002KT 29/17 A3001 RMK A01 T02910165  RH  047%=      5-min Rain = 0
KSW1 171939Z 08005KT 29/16 A3001 RMK A01 T02940164  RH  045%=      5-min Rain = 0
KSW1 171940Z 08004KT 30/16 A3001 RMK A01 T02970163  RH  044%=      5-min Rain = 0
KSW1 171941Z 09001KT 30/16 A3001 RMK A01 T02980160  RH  043%=      5-min Rain = 0
KSW1 171942Z 04002KT 30/16 A3001 RMK A01 T02980162  RH  044%=      5-min Rain = 0
KSW1 171943Z 03005KT 30/16 A3001 RMK A01 T03000162  RH  043%=      5-min Rain = 0
KSW1 171944Z 03003KT 30/16 A30 RMK A01 T02980163  RH  044%=      5-min Rain = 0
KSW1 171945Z 07004G9KT 30/16 A3001 RMK A01 T02970160  RH  044%=      5-min Rain = 0
KSW1 171946Z 08004KT 30/16 A3001 RMK A01 T02970161  RH  044%=      5-min Rain = 0
KSW1 171947Z 09003KT 30/16 A3001 RMK A01 T02970163  RH  044%=      5-min Rain = 0
KSW1 171948Z 10004KT 30/16 A3001 RMK A01 T02990160  RH  043%=      5-min Rain = 0
KSW1 171949Z 12003KT 30/16 A3001 RMK A01 T02990159  RH  043%=      5-min Rain = 0
KSW1 171950Z 12003KT 30/16 A3001 RMK A01 T02990160  RH  043%=      5-min Rain = 0
KSW1 171951Z 06005KT 30/16 A3001 RMK A01 T02980164  RH  044%=      5-min Rain = 0
KSW1 171952Z 08006KT 30/17 A3001 RMK A01 T02990165  RH  044%=      5-min Rain = 0
KSW1 171953Z 10008KT 30/16 A3001 RMK A01 T03010161  RH  043%=      5-min Rain = 0
KSW1 171954Z 08005KT 30/16 A3001 RMK A01 T03000163  RH  044%=      5-min Rain = 0
KSW1 171955Z 08004KT 30/16 A3001 RMK A01 T02990161  RH  043%=      5-min Rain = 0
KSW1 171956Z 07005KT 30/17 A30 RMK A01 T02990167  RH  045%=      5-min Rain = 0
KSW1 171957Z 04005KT 30/17 A30 RMK A01 T03020165  RH  044%=      5-min Rain = 0
KSW1 171958Z 03005KT 30/16 A30 RMK A01 T03010164  RH  043%=      5-min Rain = 0
KSW1 171959Z 02004KT 30/16 A30 RMK A01 T03000163  RH  044%=      5-min Rain = 0
KSW1 172000Z 04002KT 30/16 A30 RMK A01 T02990163  RH  044%=      5-min Rain = 0
KSW1 172001Z 07003KT 30/16 A30 RMK A01 T02980164  RH  044%=      5-min Rain = 0
KSW1 172002Z 08009KT 30/16 A30 RMK A01 T02990163  RH  044%=      5-min Rain = 0
KSW1 172003Z 07005KT 30/17 A30 RMK A01 T03000166  RH  044%=      5-min Rain = 0
KSW1 172004Z 05007KT 30/17 A30 RMK A01 T03040169  RH  044%=      5-min Rain = 0
KSW1 172005Z 04007KT 31/17 A30 RMK A01 T03050170  RH  044%=      5-min Rain = 0
KSW1 172006Z 05004KT 31/16 A30 RMK A01 T03050162  RH  042%=      5-min Rain = 0
KSW1 172007Z 04004KT 30/16 A30 RMK A01 T03020163  RH  043%=      5-min Rain = 0
KSW1 172008Z 02004KT 30/16 A30 RMK A01 T03010163  RH  044%=      5-min Rain = 0
KSW1 172009Z 36004KT 30/17 A30 RMK A01 T03000168  RH  045%=      5-min Rain = 0
KSW1 172010Z 02004KT 30/16 A30 RMK A01 T03020164  RH  043%=      5-min Rain = 0
KSW1 172011Z 05003KT 30/16 A30 RMK A01 T03020163  RH  043%=      5-min Rain = 0
KSW1 172012Z 11002KT 30/16 A30 RMK A01 T03010164  RH  044%=      5-min Rain = 0
KSW1 172013Z 07003KT 30/16 A30 RMK A01 T03010161  RH  043%=      5-min Rain = 0
KSW1 172014Z 08008KT 30/17 A30 RMK A01 T03020165  RH  044%=      5-min Rain = 0
KSW1 172015Z 07006KT 31/16 A30 RMK A01 T03050163  RH  043%=      5-min Rain = 0
KSW1 172016Z 07005KT 30/16 A30 RMK A01 T03030161  RH  042%=      5-min Rain = 0
KSW1 172017Z 13005KT 30/16 A30 RMK A01 T03010162  RH  043%=      5-min Rain = 0
KSW1 172018Z 17003KT 30/16 A30 RMK A01 T03010162  RH  043%=      5-min Rain = 0
KSW1 172019Z 12004KT 30/16 A30 RMK A01 T03020164  RH  043%=      5-min Rain = 0
KSW1 172020Z 06007KT 30/17 A30 RMK A01 T03040170  RH  045%=      5-min Rain = 0
KSW1 172021Z 05008KT 31/17 A30 RMK A01 T03080171  RH  044%=      5-min Rain = 0
KSW1 172022Z 05009KT 31/17 A30 RMK A01 T03080166  RH  043%=      5-min Rain = 0
KSW1 172023Z 05009KT 30/16 A30 RMK A01 T03030161  RH  042%=      5-min Rain = 0
KSW1 172024Z 07005KT 30/16 A30 RMK A01 T02980159  RH  043%=      5-min Rain = 0
KSW1 172025Z 09005KT 30/16 A30 RMK A01 T02950162  RH  045%=      5-min Rain = 0
KSW1 172026Z 05007KT 30/16 A30 RMK A01 T02970164  RH  045%=      5-min Rain = 0
KSW1 172027Z 03008KT 30/16 A30 RMK A01 T02980163  RH  044%=      5-min Rain = 0
KSW1 172028Z 03006KT 30/16 A30 RMK A01 T02980162  RH  044%=      5-min Rain = 0
KSW1 172029Z 04003KT 30/16 A30 RMK A01 T02970162  RH  044%=      5-min Rain = 0
KSW1 172030Z 01002KT 30/16 A2999 RMK A01 T02960163  RH  045%=      5-min Rain = 0
KSW1 172031Z 35003KT 30/16 A2999 RMK A01 T02960161  RH  044%=      5-min Rain = 0
KSW1 172032Z 06004KT 30/17 A30 RMK A01 T02980167  RH  045%=      5-min Rain = 0
KSW1 172033Z 03009KT 30/17 A30 RMK A01 T03010169  RH  045%=      5-min Rain = 0
KSW1 172034Z 04009KT 30/17 A30 RMK A01 T03040166  RH  043%=      5-min Rain = 0
KSW1 172035Z 05007KT 30/17 A30 RMK A01 T03040170  RH  045%=      5-min Rain = 0
KSW1 172036Z 06007KT 31/17 A30 RMK A01 T03050169  RH  044%=      5-min Rain = 0
KSW1 172037Z 08007KT 31/17 A2999 RMK A01 T03070169  RH  044%=      5-min Rain = 0
KSW1 172038Z 08006KT 31/17 A2999 RMK A01 T03090169  RH  043%=      5-min Rain = 0
KSW1 172039Z 06007KT 31/17 A2999 RMK A01 T03100168  RH  042%=      5-min Rain = 0
KSW1 172040Z 09007KT 31/17 A2999 RMK A01 T03080165  RH  042%=      5-min Rain = 0
KSW1 172041Z 10005KT 31/16 A2999 RMK A01 T03060162  RH  042%=      5-min Rain = 0
KSW1 172042Z 08007KT 31/17 A2999 RMK A01 T03050165  RH  043%=      5-min Rain = 0
KSW1 172043Z 08004KT 31/16 A2999 RMK A01 T03050164  RH  043%=      5-min Rain = 0
KSW1 172044Z 07006KT 31/17 A2999 RMK A01 T03070171  RH  044%=      5-min Rain = 0
KSW1 172045Z 10009KT 31/17 A2999 RMK A01 T03100169  RH  043%=      5-min Rain = 0
KSW1 172046Z 10008KT 31/17 A2999 RMK A01 T03110165  RH  041%=      5-min Rain = 0
KSW1 172047Z 10007KT 31/16 A2999 RMK A01 T03090164  RH  042%=      5-min Rain = 0
KSW1 172048Z 09006KT 31/16 A2999 RMK A01 T03070162  RH  042%=      5-min Rain = 0
KSW1 172049Z 09007KT 31/17 A2999 RMK A01 T03060167  RH  043%=      5-min Rain = 0
KSW1 172050Z 09006KT 31/16 A2999 RMK A01 T03070163  RH  042%=      5-min Rain = 0
KSW1 172051Z 09005KT 31/16 A2999 RMK A01 T03070164  RH  042%=      5-min Rain = 0
KSW1 172052Z 10003KT 31/16 A2999 RMK A01 T03060163  RH  042%=      5-min Rain = 0
KSW1 172053Z 09009KT 31/17 A2999 RMK A01 T03060166  RH  043%=      5-min Rain = 0
KSW1 172054Z 06011KT 31/17 A2999 RMK A01 T03080168  RH  043%=      5-min Rain = 0
KSW1 172055Z 07010KT 31/17 A2999 RMK A01 T03110169  RH  043%=      5-min Rain = 0
KSW1 172056Z 10010KT 31/17 A2999 RMK A01 T03120167  RH  042%=      5-min Rain = 0
KSW1 172057Z 11010KT 31/16 A2999 RMK A01 T03120164  RH  041%=      5-min Rain = 0
KSW1 172058Z 11008KT 31/16 A2999 RMK A01 T03090161  RH  041%=      5-min Rain = 0
KSW1 172059Z 10014KT 31/16 A2999 RMK A01 T03070164  RH  042%=      5-min Rain = 0
KSW1 172100Z 10011KT 31/16 A2999 RMK A01 T03070160  RH  041%=      5-min Rain = 0
KSW1 172101Z 10009KT 31/16 A2999 RMK A01 T03070164  RH  042%=      5-min Rain = 0
KSW1 172102Z 09005KT 31/16 A2999 RMK A01 T03090160  RH  041%=      5-min Rain = 0
KSW1 172103Z 07003KT 31/16 A2999 RMK A01 T03070162  RH  042%=      5-min Rain = 0
KSW1 172104Z 11004KT 31/17 A2998 RMK A01 T03070165  RH  043%=      5-min Rain = 0
KSW1 172105Z 11007KT 31/16 A2998 RMK A01 T03080161  RH  041%=      5-min Rain = 0
KSW1 172106Z 07007KT 31/17 A2998 RMK A01 T03080165  RH  042%=      5-min Rain = 0
KSW1 172107Z 07008KT 31/17 A2998 RMK A01 T03080166  RH  043%=      5-min Rain = 0
KSW1 172108Z 08008KT 31/17 A2998 RMK A01 T03080166  RH  043%=      5-min Rain = 0
KSW1 172109Z 08006KT 31/16 A2998 RMK A01 T03080162  RH  041%=      5-min Rain = 0
KSW1 172110Z 06005KT 31/17 A2998 RMK A01 T03070166  RH  043%=      5-min Rain = 0
KSW1 172111Z 09005KT 31/16 A2998 RMK A01 T03080164  RH  042%=      5-min Rain = 0
KSW1 172112Z 11007KT 31/17 A2998 RMK A01 T03080165  RH  042%=      5-min Rain = 0
KSW1 172113Z 10007KT 31/16 A2998 RMK A01 T03080164  RH  042%=      5-min Rain = 0
KSW1 172114Z 09010KT 31/16 A2998 RMK A01 T03080163  RH  042%=      5-min Rain = 0
KSW1 172115Z 09011KT 31/16 A2998 RMK A01 T03080164  RH  042%=      5-min Rain = 0
KSW1 172116Z 07011KT 31/17 A2998 RMK A01 T03090167  RH  042%=      5-min Rain = 0
KSW1 172117Z 07009KT 31/16 A2998 RMK A01 T03100163  RH  041%=      5-min Rain = 0
KSW1 172118Z 09009KT 31/16 A2998 RMK A01 T03080163  RH  042%=      5-min Rain = 0
KSW1 172119Z 10011KT 31/16 A2998 RMK A01 T03080162  RH  042%=      5-min Rain = 0
KSW1 172120Z 09007KT 31/16 A2998 RMK A01 T03080163  RH  042%=      5-min Rain = 0
KSW1 172121Z 09005KT 31/16 A2998 RMK A01 T03080163  RH  042%=      5-min Rain = 0
KSW1 172122Z 10006KT 31/17 A2998 RMK A01 T03090165  RH  042%=      5-min Rain = 0
KSW1 172123Z 07008KT 31/17 A2998 RMK A01 T03090166  RH  042%=      5-min Rain = 0
KSW1 172124Z 06009KT 31/16 A2998 RMK A01 T03110164  RH  041%=      5-min Rain = 0
KSW1 172125Z 07010KT 31/17 A2998 RMK A01 T03110165  RH  042%=      5-min Rain = 0
KSW1 172126Z 07011KT 31/16 A2998 RMK A01 T03110163  RH  041%=      5-min Rain = 0
KSW1 172127Z 08011KT 31/16 A2998 RMK A01 T03100162  RH  041%=      5-min Rain = 0
KSW1 172128Z 08010KT 31/16 A2998 RMK A01 T03100162  RH  041%=      5-min Rain = 0
KSW1 172129Z 08006KT 31/16 A2998 RMK A01 T03100161  RH  041%=      5-min Rain = 0
KSW1 172130Z 09006KT 31/16 A2997 RMK A01 T03100160  RH  041%=      5-min Rain = 0
KSW1 172131Z 08012KT 31/16 A2998 RMK A01 T03080161  RH  041%=      5-min Rain = 0
KSW1 172132Z 08013KT 31/16 A2998 RMK A01 T03080160  RH  041%=      5-min Rain = 0
KSW1 172133Z 09009KT 31/16 A2997 RMK A01 T03070159  RH  041%=      5-min Rain = 0
KSW1 172134Z 10009KT 31/16 A2997 RMK A01 T03060159  RH  041%=      5-min Rain = 0
KSW1 172135Z 09011KT 31/16 A2997 RMK A01 T03060163  RH  042%=      5-min Rain = 0
KSW1 172136Z 09012KT 31/16 A2997 RMK A01 T03080161  RH  041%=      5-min Rain = 0
KSW1 172137Z 09013KT 31/16 A2997 RMK A01 T03090158  RH  040%=      5-min Rain = 0
KSW1 172138Z 09010KT 31/16 A2997 RMK A01 T03070158  RH  041%=      5-min Rain = 0
KSW1 172139Z 10009KT 31/16 A2997 RMK A01 T03070160  RH  041%=      5-min Rain = 0
KSW1 172140Z 09011KT 31/16 A2997 RMK A01 T03090162  RH  041%=      5-min Rain = 0
KSW1 172141Z 08012KT 31/16 A2997 RMK A01 T03090159  RH  040%=      5-min Rain = 0
KSW1 172142Z 09010KT 31/16 A2997 RMK A01 T03080158  RH  040%=      5-min Rain = 0
KSW1 172143Z 10006KT 31/16 A2997 RMK A01 T03060157  RH  040%=      5-min Rain = 0
KSW1 172144Z 10007KT 31/16 A2997 RMK A01 T03050159  RH  041%=      5-min Rain = 0
KSW1 172145Z 09013KT 31/16 A2997 RMK A01 T03070162  RH  042%=      5-min Rain = 0
KSW1 172146Z 09013KT 31/16 A2997 RMK A01 T03070158  RH  040%=      5-min Rain = 0
KSW1 172147Z 11012KT 31/16 A2997 RMK A01 T03060157  RH  040%=      5-min Rain = 0
KSW1 172148Z 10012KT 31/16 A2997 RMK A01 T03050158  RH  041%=      5-min Rain = 0
KSW1 172149Z 11011KT 30/16 A2997 RMK A01 T03040158  RH  042%=      5-min Rain = 0
KSW1 172150Z 09010KT 30/16 A2997 RMK A01 T03040159  RH  042%=      5-min Rain = 0
KSW1 172151Z 10005KT 30/16 A2997 RMK A01 T03040160  RH  042%=      5-min Rain = 0
KSW1 172152Z 09007KT 30/16 A2997 RMK A01 T03040161  RH  042%=      5-min Rain = 0
KSW1 172153Z 10011KT 31/16 A2997 RMK A01 T03060163  RH  042%=      5-min Rain = 0
KSW1 172154Z 11011KT 31/16 A2997 RMK A01 T03060158  RH  041%=      5-min Rain = 0
KSW1 172155Z 10009KT 30/16 A2997 RMK A01 T03040156  RH  041%=      5-min Rain = 0
KSW1 172156Z 09007KT 30/16 A2997 RMK A01 T03010157  RH  042%=      5-min Rain = 0
KSW1 172157Z 10008KT 30/16 A2997 RMK A01 T03010160  RH  042%=      5-min Rain = 0
KSW1 172158Z 08009KT 30/16 A2997 RMK A01 T03030160  RH  042%=      5-min Rain = 0
KSW1 172159Z 07011KT 30/16 A2997 RMK A01 T03040159  RH  042%=      5-min Rain = 0
KSW1 172200Z 07011KT 30/16 A2997 RMK A01 T03030159  RH  042%=      5-min Rain = 0
KSW1 172201Z 06012KT 30/16 A2997 RMK A01 T03030160  RH  042%=      5-min Rain = 0
KSW1 172202Z 06011KT 30/16 A2997 RMK A01 T03010157  RH  042%=      5-min Rain = 0
KSW1 172203Z 07011KT 30/16 A2997 RMK A01 T02990157  RH  042%=      5-min Rain = 0
KSW1 172204Z 07012KT 30/16 A2997 RMK A01 T02990159  RH  043%=      5-min Rain = 0
KSW1 172205Z 08013KT 30/16 A2997 RMK A01 T02990157  RH  042%=      5-min Rain = 0
KSW1 172206Z 09009KT 30/16 A2997 RMK A01 T03000156  RH  042%=      5-min Rain = 0
KSW1 172207Z 08007KT 30/16 A2996 RMK A01 T03000157  RH  042%=      5-min Rain = 0
KSW1 172208Z 09007KT 30/16 A2996 RMK A01 T03000161  RH  043%=      5-min Rain = 0
KSW1 172209Z 09009KT 30/16 A2996 RMK A01 T03030160  RH  042%=      5-min Rain = 0
KSW1 172210Z 10011KT 30/16 A2996 RMK A01 T03030158  RH  041%=      5-min Rain = 0
KSW1 172211Z 09010KT 30/16 A2996 RMK A01 T03030157  RH  041%=      5-min Rain = 0
KSW1 172212Z 10007KT 30/16 A2996 RMK A01 T03020156  RH  041%=      5-min Rain = 0
KSW1 172213Z 10008KT 30/16 A2996 RMK A01 T03010161  RH  043%=      5-min Rain = 0
KSW1 172214Z 09007KT 30/16 A2996 RMK A01 T03030160  RH  042%=      5-min Rain = 0
KSW1 172215Z 08006KT 30/16 A2996 RMK A01 T03040161  RH  042%=      5-min Rain = 0
KSW1 172216Z 09007KT 30/16 A2996 RMK A01 T03040159  RH  042%=      5-min Rain = 0
KSW1 172217Z 09007KT 31/16 A2996 RMK A01 T03050162  RH  042%=      5-min Rain = 0
KSW1 172218Z 09010KT 31/16 A2996 RMK A01 T03050162  RH  042%=      5-min Rain = 0
KSW1 172219Z 08009KT 31/16 A2996 RMK A01 T03060161  RH  042%=      5-min Rain = 0
KSW1 172220Z 07009KT 31/16 A2996 RMK A01 T03060162  RH  042%=      5-min Rain = 0
KSW1 172221Z 08010KT 31/16 A2996 RMK A01 T03060160  RH  041%=      5-min Rain = 0
KSW1 172222Z 08012KT 31/16 A2996 RMK A01 T03050158  RH  041%=      5-min Rain = 0
KSW1 172223Z 09012KT 30/16 A2996 RMK A01 T03030158  RH  041%=      5-min Rain = 0
KSW1 172224Z 08009KT 30/16 A2996 RMK A01 T03020158  RH  042%=      5-min Rain = 0
KSW1 172225Z 07010KT 30/16 A2996 RMK A01 T03010161  RH  043%=      5-min Rain = 0
KSW1 172226Z 09011KT 30/16 A2996 RMK A01 T03020159  RH  042%=      5-min Rain = 0
KSW1 172227Z 10009KT 30/16 A2996 RMK A01 T03010157  RH  042%=      5-min Rain = 0
KSW1 172228Z 08007KT 30/16 A2996 RMK A01 T03000156  RH  042%=      5-min Rain = 0
KSW1 172229Z 07008KT 30/16 A2996 RMK A01 T02990161  RH  043%=      5-min Rain = 0
KSW1 172230Z 06009KT 30/16 A2996 RMK A01 T03000162  RH  043%=      5-min Rain = 0
KSW1 172231Z 09008KT 30/16 A2996 RMK A01 T03010162  RH  043%=      5-min Rain = 0
KSW1 172232Z 09008KT 30/16 A2996 RMK A01 T03010161  RH  043%=      5-min Rain = 0
KSW1 172233Z 10005KT 30/16 A2996 RMK A01 T03030163  RH  043%=      5-min Rain = 0
KSW1 172234Z 10007KT 30/17 A2996 RMK A01 T03040165  RH  043%=      5-min Rain = 0
KSW1 172235Z 10007KT 31/16 A2996 RMK A01 T03050164  RH  043%=      5-min Rain = 0
KSW1 172236Z 10008KT 31/16 A2996 RMK A01 T03060160  RH  041%=      5-min Rain = 0
KSW1 172237Z 11009KT 31/16 A2996 RMK A01 T03050159  RH  041%=      5-min Rain = 0
KSW1 172238Z 12009KT 30/16 A2996 RMK A01 T03030158  RH  042%=      5-min Rain = 0
KSW1 172239Z 11006KT 30/16 A2996 RMK A01 T03010159  RH  042%=      5-min Rain = 0
KSW1 172240Z 12005KT 30/16 A2996 RMK A01 T03010159  RH  042%=      5-min Rain = 0
KSW1 172241Z 09005KT 30/16 A2996 RMK A01 T03010162  RH  043%=      5-min Rain = 0
KSW1 172242Z 07007KT 30/16 A2996 RMK A01 T03020161  RH  043%=      5-min Rain = 0
KSW1 172243Z 06009KT 30/16 A2996 RMK A01 T03020158  RH  042%=      5-min Rain = 0
KSW1 172244Z 07008KT 30/16 A2996 RMK A01 T03010159  RH  042%=      5-min Rain = 0
KSW1 172245Z 08008KT 30/16 A2996 RMK A01 T03010160  RH  043%=      5-min Rain = 0
KSW1 172246Z 08007KT 30/16 A2996 RMK A01 T03010157  RH  042%=      5-min Rain = 0
KSW1 172247Z 08006KT 30/16 A2996 RMK A01 T03000159  RH  043%=      5-min Rain = 0
KSW1 172248Z 07008KT 30/16 A2996 RMK A01 T03010160  RH  043%=      5-min Rain = 0
KSW1 172249Z 09007KT 30/16 A2996 RMK A01 T03020158  RH  042%=      5-min Rain = 0
KSW1 172250Z 08008KT 30/16 A2996 RMK A01 T03010158  RH  042%=      5-min Rain = 0
KSW1 172251Z 07008KT 30/16 A2995 RMK A01 T03000157  RH  042%=      5-min Rain = 0
KSW1 172252Z 07007KT 30/16 A2995 RMK A01 T03000158  RH  042%=      5-min Rain = 0
KSW1 172253Z 06009KT 30/16 A2995 RMK A01 T02990156  RH  042%=      5-min Rain = 0
KSW1 172254Z 06009KT 30/16 A2995 RMK A01 T02990159  RH  043%=      5-min Rain = 0
KSW1 172255Z 06009KT 30/16 A2995 RMK A01 T02980158  RH  043%=      5-min Rain = 0
KSW1 172256Z 07011KT 30/16 A2995 RMK A01 T02980160  RH  043%=      5-min Rain = 0
KSW1 172257Z 07009KT 30/16 A2995 RMK A01 T02990163  RH  044%=      5-min Rain = 0
KSW1 172258Z 08008KT 30/16 A2995 RMK A01 T03010156  RH  042%=      5-min Rain = 0
KSW1 172259Z 08007KT 30/16 A2995 RMK A01 T02990157  RH  042%=      5-min Rain = 0
KSW1 172300Z 06007KT 30/16 A2995 RMK A01 T02980159  RH  043%=      5-min Rain = 0
KSW1 172301Z 05006KT 30/16 A2995 RMK A01 T02980158  RH  043%=      5-min Rain = 0
KSW1 172302Z 06007KT 30/16 A2995 RMK A01 T02980158  RH  043%=      5-min Rain = 0
KSW1 172303Z 08006KT 30/16 A2995 RMK A01 T02980159  RH  043%=      5-min Rain = 0
KSW1 172304Z 08007KT 30/16 A2995 RMK A01 T02980162  RH  044%=      5-min Rain = 0
KSW1 172305Z 07008KT 30/16 A2995 RMK A01 T03000160  RH  043%=      5-min Rain = 0
KSW1 172306Z 06007KT 30/16 A2995 RMK A01 T03000157  RH  042%=      5-min Rain = 0
KSW1 172307Z 05008KT 30/16 A2995 RMK A01 T02980160  RH  043%=      5-min Rain = 0
KSW1 172308Z 06009KT 30/16 A2995 RMK A01 T02980160  RH  043%=      5-min Rain = 0
KSW1 172309Z 06010KT 30/16 A2995 RMK A01 T02960157  RH  043%=      5-min Rain = 0
KSW1 172310Z 08010KT 30/16 A2995 RMK A01 T02950159  RH  044%=      5-min Rain = 0
KSW1 172311Z 07010KT 29/16 A2995 RMK A01 T02940157  RH  043%=      5-min Rain = 0
KSW1 172312Z 06008KT 29/16 A2995 RMK A01 T02940159  RH  044%=      5-min Rain = 0
KSW1 172313Z 06008KT 29/16 A2995 RMK A01 T02940161  RH  045%=      5-min Rain = 0
KSW1 172314Z 08009KT 29/16 A2995 RMK A01 T02930161  RH  045%=      5-min Rain = 0
KSW1 172315Z 10008KT 29/16 A2995 RMK A01 T02940159  RH  044%=      5-min Rain = 0
KSW1 172316Z 11006KT 29/16 A2995 RMK A01 T02940159  RH  044%=      5-min Rain = 0
KSW1 172317Z 09006KT 30/16 A2995 RMK A01 T02950160  RH  044%=      5-min Rain = 0
KSW1 172318Z 09008KT 30/16 A2995 RMK A01 T02950159  RH  044%=      5-min Rain = 0
KSW1 172319Z 08010KT 30/16 A2995 RMK A01 T02950159  RH  044%=      5-min Rain = 0
KSW1 172320Z 09010KT 30/16 A2995 RMK A01 T02950156  RH  043%=      5-min Rain = 0
KSW1 172321Z 09009KT 30/16 A2995 RMK A01 T02950157  RH  043%=      5-min Rain = 0
KSW1 172322Z 09008KT 30/16 A2994 RMK A01 T02960159  RH  044%=      5-min Rain = 0
KSW1 172323Z 08008KT 30/16 A2994 RMK A01 T02970158  RH  043%=      5-min Rain = 0
KSW1 172324Z 08007KT 30/16 A2994 RMK A01 T02970157  RH  043%=      5-min Rain = 0
KSW1 172325Z 07009KT 30/16 A2994 RMK A01 T02960159  RH  044%=      5-min Rain = 0
KSW1 172326Z 07008KT 30/16 A2994 RMK A01 T02960156  RH  043%=      5-min Rain = 0
KSW1 172327Z 08006KT 30/16 A2994 RMK A01 T02950160  RH  044%=      5-min Rain = 0
KSW1 172328Z 07008KT 30/16 A2994 RMK A01 T02960160  RH  044%=      5-min Rain = 0
KSW1 172329Z 07009KT 30/16 A2994 RMK A01 T02970161  RH  044%=      5-min Rain = 0
KSW1 172330Z 07009KT 30/16 A2994 RMK A01 T02980161  RH  044%=      5-min Rain = 0
KSW1 172331Z 08008KT 30/16 A2994 RMK A01 T02980157  RH  043%=      5-min Rain = 0
KSW1 172332Z 08007KT 30/16 A2994 RMK A01 T02970162  RH  044%=      5-min Rain = 0
KSW1 172333Z 10006KT 30/16 A2994 RMK A01 T02970161  RH  044%=      5-min Rain = 0
KSW1 172334Z 08007KT 30/16 A2994 RMK A01 T02990163  RH  044%=      5-min Rain = 0
KSW1 172335Z 08007KT 30/16 A2994 RMK A01 T03000160  RH  043%=      5-min Rain = 0
KSW1 172336Z 08008KT 30/16 A2994 RMK A01 T03010159  RH  043%=      5-min Rain = 0
KSW1 172337Z 09011KT 30/16 A2994 RMK A01 T03000157  RH  042%=      5-min Rain = 0
KSW1 172338Z 09009KT 30/16 A2994 RMK A01 T02990156  RH  042%=      5-min Rain = 0
KSW1 172339Z 08008KT 30/16 A2994 RMK A01 T02990159  RH  043%=      5-min Rain = 0
KSW1 172340Z 08009KT 30/16 A2994 RMK A01 T02990156  RH  042%=      5-min Rain = 0
KSW1 172341Z 09010KT 30/16 A2994 RMK A01 T02980155  RH  042%=      5-min Rain = 0
KSW1 172342Z 08009KT 30/16 A2994 RMK A01 T02970157  RH  043%=      5-min Rain = 0
KSW1 172343Z 08009KT 30/16 A2994 RMK A01 T02970155  RH  042%=      5-min Rain = 0
KSW1 172344Z 09008KT 30/15 A2994 RMK A01 T02970154  RH  042%=      5-min Rain = 0
KSW1 172345Z 07009KT 30/16 A2994 RMK A01 T02960155  RH  043%=      5-min Rain = 0
KSW1 172346Z 07008KT 30/16 A2994 RMK A01 T02950157  RH  043%=      5-min Rain = 0
KSW1 172347Z 07009KT 30/16 A2994 RMK A01 T02960160  RH  044%=      5-min Rain = 0
KSW1 172348Z 08008KT 30/16 A2994 RMK A01 T02960159  RH  044%=      5-min Rain = 0
KSW1 172349Z 08011KT 30/16 A2994 RMK A01 T02960158  RH  043%=      5-min Rain = 0
KSW1 172350Z 08010KT 30/16 A2994 RMK A01 T02950156  RH  043%=      5-min Rain = 0
KSW1 172351Z 08008KT 29/16 A2994 RMK A01 T02940155  RH  043%=      5-min Rain = 0
KSW1 172352Z 07009KT 29/16 A2993 RMK A01 T02930158  RH  044%=      5-min Rain = 0
KSW1 172353Z 07009KT 29/16 A2993 RMK A01 T02930156  RH  043%=      5-min Rain = 0
KSW1 172354Z 08008KT 29/16 A2993 RMK A01 T02920160  RH  045%=      5-min Rain = 0
KSW1 172355Z 10009KT 29/16 A2993 RMK A01 T02920161  RH  045%=      5-min Rain = 0
KSW1 172356Z 08009KT 29/16 A2993 RMK A01 T02930160  RH  045%=      5-min Rain = 0
KSW1 172357Z 09011KT 29/16 A2993 RMK A01 T02930157  RH  044%=      5-min Rain = 0
KSW1 172358Z 10010KT 29/16 A2993 RMK A01 T02920158  RH  044%=      5-min Rain = 0
KSW1 172359Z 09011KT 29/16 A2993 RMK A01 T02920158  RH  044%=      5-min Rain = 0
KSW1 180000Z 10009KT 29/16 A2993 RMK A01 T02920158  RH  044%=      5-min Rain = 0
KSW1 180001Z 10010KT 29/16 A2993 RMK A01 T02920158  RH  044%=      5-min Rain = 0
KSW1 180002Z 09010KT 29/16 A2993 RMK A01 T02910157  RH  044%=      5-min Rain = 0
KSW1 180003Z 09010KT 29/16 A2993 RMK A01 T02900156  RH  044%=      5-min Rain = 0
KSW1 180004Z 10010KT 29/16 A2993 RMK A01 T02890158  RH  045%=      5-min Rain = 0
KSW1 180005Z 10010KT 29/16 A2993 RMK A01 T02890156  RH  045%=      5-min Rain = 0
KSW1 180006Z 09011KT 29/16 A2993 RMK A01 T02880156  RH  045%=      5-min Rain = 0
KSW1 180007Z 09009KT 29/16 A2993 RMK A01 T02870156  RH  045%=      5-min Rain = 0
KSW1 180008Z 09010KT 29/16 A2993 RMK A01 T02870156  RH  045%=      5-min Rain = 0
KSW1 180009Z 08008KT 29/16 A2994 RMK A01 T02860158  RH  046%=      5-min Rain = 0
KSW1 180010Z 08009KT 29/16 A2994 RMK A01 T02860156  RH  045%=      5-min Rain = 0
KSW1 180011Z 08008KT 29/16 A2994 RMK A01 T02860156  RH  045%=      5-min Rain = 0
KSW1 180012Z 09008KT 29/16 A2994 RMK A01 T02850156  RH  046%=      5-min Rain = 0
KSW1 180013Z 09008KT 29/16 A2994 RMK A01 T02850157  RH  046%=      5-min Rain = 0
KSW1 180014Z 08008KT 29/16 A2994 RMK A01 T02850159  RH  046%=      5-min Rain = 0
KSW1 180015Z 08009KT 28/16 A2994 RMK A01 T02840157  RH  046%=      5-min Rain = 0
KSW1 180016Z 09008KT 28/16 A2994 RMK A01 T02840157  RH  046%=      5-min Rain = 0
KSW1 180017Z 09008KT 28/16 A2994 RMK A01 T02840157  RH  046%=      5-min Rain = 0
KSW1 180018Z 09008KT 28/16 A2994 RMK A01 T02840157  RH  046%=      5-min Rain = 0
KSW1 180019Z 10009KT 28/16 A2994 RMK A01 T02840157  RH  046%=      5-min Rain = 0
KSW1 180020Z 10008KT 28/16 A2994 RMK A01 T02840156  RH  046%=      5-min Rain = 0
KSW1 180021Z 10007KT 28/15 A2994 RMK A01 T02840154  RH  045%=      5-min Rain = 0
KSW1 180022Z 09006KT 28/16 A2994 RMK A01 T02840157  RH  046%=      5-min Rain = 0
KSW1 180023Z 09006KT 28/16 A2994 RMK A01 T02830159  RH  047%=      5-min Rain = 0
KSW1 180024Z 10007KT 28/16 A2994 RMK A01 T02830158  RH  047%=      5-min Rain = 0
KSW1 180025Z 09008KT 28/16 A2994 RMK A01 T02820157  RH  047%=      5-min Rain = 0
KSW1 180026Z 09008KT 28/16 A2994 RMK A01 T02820157  RH  046%=      5-min Rain = 0
KSW1 180027Z 09008KT 28/16 A2994 RMK A01 T02820155  RH  046%=      5-min Rain = 0
KSW1 180028Z 09009KT 28/16 A2994 RMK A01 T02820156  RH  046%=      5-min Rain = 0
KSW1 180029Z 08007KT 28/16 A2994 RMK A01 T02820156  RH  046%=      5-min Rain = 0
KSW1 180030Z 09007KT 28/16 A2994 RMK A01 T02820158  RH  047%=      5-min Rain = 0
KSW1 180031Z 09007KT 28/16 A2994 RMK A01 T02810157  RH  047%=      5-min Rain = 0
KSW1 180032Z 09007KT 28/16 A2994 RMK A01 T02810157  RH  047%=      5-min Rain = 0
KSW1 180033Z 09007KT 28/16 A2994 RMK A01 T02810157  RH  047%=      5-min Rain = 0
KSW1 180034Z 09007KT 28/16 A2994 RMK A01 T02800157  RH  047%=      5-min Rain = 0
KSW1 180035Z 09006KT 28/16 A2994 RMK A01 T02800158  RH  048%=      5-min Rain = 0
KSW1 180036Z 09007KT 28/16 A2994 RMK A01 T02790158  RH  048%=      5-min Rain = 0
KSW1 180037Z 09007KT 28/16 A2994 RMK A01 T02790158  RH  048%=      5-min Rain = 0
KSW1 180038Z 09008KT 28/16 A2994 RMK A01 T02790157  RH  048%=      5-min Rain = 0
KSW1 180039Z 09007KT 28/16 A2994 RMK A01 T02780158  RH  048%=      5-min Rain = 0
KSW1 180040Z 09007KT 28/16 A2994 RMK A01 T02780158  RH  048%=      5-min Rain = 0
KSW1 180041Z 09006KT 28/16 A2994 RMK A01 T02780159  RH  048%=      5-min Rain = 0
KSW1 180042Z 09008KT 28/16 A2994 RMK A01 T02770158  RH  048%=      5-min Rain = 0
KSW1 180043Z 09007KT 28/16 A2994 RMK A01 T02770157  RH  048%=      5-min Rain = 0
KSW1 180044Z 09007KT 28/16 A2994 RMK A01 T02770157  RH  048%=      5-min Rain = 0
KSW1 180045Z 09006KT 28/16 A2994 RMK A01 T02770158  RH  048%=      5-min Rain = 0
KSW1 180046Z 09006KT 28/16 A2994 RMK A01 T02760159  RH  049%=      5-min Rain = 0
KSW1 180047Z 09006KT 28/16 A2994 RMK A01 T02760159  RH  049%=      5-min Rain = 0
KSW1 180048Z 09007KT 28/16 A2994 RMK A01 T02760159  RH  049%=      5-min Rain = 0
KSW1 180049Z 09007KT 28/16 A2994 RMK A01 T02750158  RH  049%=      5-min Rain = 0
KSW1 180050Z 09006KT 28/16 A2994 RMK A01 T02750159  RH  049%=      5-min Rain = 0
KSW1 180051Z 09007KT 28/16 A2994 RMK A01 T02750159  RH  049%=      5-min Rain = 0
KSW1 180052Z 09006KT 27/16 A2994 RMK A01 T02740158  RH  049%=      5-min Rain = 0
KSW1 180053Z 09006KT 27/16 A2994 RMK A01 T02740159  RH  049%=      5-min Rain = 0
KSW1 180054Z 09006KT 27/16 A2994 RMK A01 T02740159  RH  049%=      5-min Rain = 0
KSW1 180055Z 09006KT 27/16 A2994 RMK A01 T02740160  RH  050%=      5-min Rain = 0
KSW1 180056Z 09006KT 27/16 A2994 RMK A01 T02730160  RH  050%=      5-min Rain = 0
KSW1 180057Z 10005KT 27/16 A2994 RMK A01 T02730160  RH  050%=      5-min Rain = 0
KSW1 180058Z 10006KT 27/16 A2994 RMK A01 T02720161  RH  051%=      5-min Rain = 0
KSW1 180059Z 10006KT 27/16 A2994 RMK A01 T02720161  RH  051%=      5-min Rain = 0
KSW1 180100Z 10005KT 27/16 A2995 RMK A01 T02710160  RH  051%=      5-min Rain = 0
KSW1 180101Z 10006KT 27/16 A2995 RMK A01 T02710160  RH  051%=      5-min Rain = 0
KSW1 180102Z 10006KT 27/16 A2995 RMK A01 T02710160  RH  051%=      5-min Rain = 0
KSW1 180103Z 10005KT 27/16 A2995 RMK A01 T02700160  RH  051%=      5-min Rain = 0
KSW1 180104Z 11005KT 27/16 A2995 RMK A01 T02700161  RH  051%=      5-min Rain = 0
KSW1 180105Z 11005KT 27/16 A2995 RMK A01 T02690161  RH  052%=      5-min Rain = 0
KSW1 180106Z 11005KT 27/16 A2995 RMK A01 T02690161  RH  052%=      5-min Rain = 0
KSW1 180107Z 11005KT 27/16 A2995 RMK A01 T02690162  RH  052%=      5-min Rain = 0
KSW1 180108Z 12005KT 27/16 A2995 RMK A01 T02680163  RH  053%=      5-min Rain = 0
KSW1 180109Z 11005KT 27/16 A2995 RMK A01 T02670164  RH  053%=      5-min Rain = 0
KSW1 180110Z 11005KT 27/16 A2995 RMK A01 T02660164  RH  053%=      5-min Rain = 0
KSW1 180111Z 11006KT 27/16 A2994 RMK A01 T02660164  RH  054%=      5-min Rain = 0
KSW1 180112Z 11006KT 27/16 A2994 RMK A01 T02650164  RH  054%=      5-min Rain = 0
KSW1 180113Z 12007KT 26/16 A2994 RMK A01 T02640164  RH  054%=      5-min Rain = 0
KSW1 180114Z 13007KT 26/16 A2994 RMK A01 T02640164  RH  054%=      5-min Rain = 0
KSW1 180115Z 13007KT 26/17 A2994 RMK A01 T02630165  RH  055%=      5-min Rain = 0
KSW1 180116Z 13007KT 26/17 A2994 RMK A01 T02630165  RH  055%=      5-min Rain = 0
KSW1 180117Z 12007KT 26/17 A2994 RMK A01 T02620165  RH  055%=      5-min Rain = 0
KSW1 180118Z 13006KT 26/16 A2994 RMK A01 T02620164  RH  055%=      5-min Rain = 0
KSW1 180119Z 13007KT 26/16 A2994 RMK A01 T02620164  RH  055%=      5-min Rain = 0
KSW1 180120Z 12006KT 26/16 A2994 RMK A01 T02620164  RH  055%=      5-min Rain = 0
KSW1 180121Z 12006KT 26/16 A2994 RMK A01 T02620164  RH  055%=      5-min Rain = 0
KSW1 180122Z 11006KT 26/16 A2994 RMK A01 T02620164  RH  055%=      5-min Rain = 0
KSW1 180123Z 11005KT 26/16 A2994 RMK A01 T02620164  RH  055%=      5-min Rain = 0
KSW1 180124Z 12006KT 26/17 A2994 RMK A01 T02620165  RH  055%=      5-min Rain = 0
KSW1 180125Z 11005KT 26/17 A2994 RMK A01 T02620165  RH  055%=      5-min Rain = 0
KSW1 180126Z 11005KT 26/17 A2994 RMK A01 T02610165  RH  055%=      5-min Rain = 0
KSW1 180127Z 12005KT 26/17 A2994 RMK A01 T02610166  RH  056%=      5-min Rain = 0
KSW1 180128Z 13005KT 26/17 A2994 RMK A01 T02600166  RH  056%=      5-min Rain = 0
KSW1 180129Z 12005KT 26/17 A2994 RMK A01 T02590166  RH  056%=      5-min Rain = 0
KSW1 180130Z 12005KT 26/17 A2994 RMK A01 T02590166  RH  057%=      5-min Rain = 0
KSW1 180131Z 12005KT 26/17 A2994 RMK A01 T02580166  RH  057%=      5-min Rain = 0
KSW1 180132Z 12006KT 26/17 A2994 RMK A01 T02580166  RH  057%=      5-min Rain = 0
KSW1 180133Z 11006KT 26/17 A2994 RMK A01 T02580166  RH  057%=      5-min Rain = 0
KSW1 180134Z 11006KT 26/17 A2994 RMK A01 T02580166  RH  057%=      5-min Rain = 0
KSW1 180135Z 11006KT 26/17 A2994 RMK A01 T02570166  RH  057%=      5-min Rain = 0
KSW1 180136Z 11006KT 26/17 A2994 RMK A01 T02570166  RH  057%=      5-min Rain = 0
KSW1 180137Z 11006KT 26/17 A2994 RMK A01 T02560166  RH  058%=      5-min Rain = 0
KSW1 180138Z 11006KT 26/17 A2994 RMK A01 T02550166  RH  058%=      5-min Rain = 0
KSW1 180139Z 11005KT 26/17 A2994 RMK A01 T02550167  RH  058%=      5-min Rain = 0
KSW1 180140Z 12005KT 25/17 A2994 RMK A01 T02540167  RH  059%=      5-min Rain = 0
KSW1 180141Z 12005KT 25/17 A2994 RMK A01 T02530167  RH  059%=      5-min Rain = 0
KSW1 180142Z 11005KT 25/17 A2994 RMK A01 T02530167  RH  059%=      5-min Rain = 0
KSW1 180143Z 11005KT 25/17 A2994 RMK A01 T02530167  RH  059%=      5-min Rain = 0
KSW1 180144Z 11005KT 25/17 A2994 RMK A01 T02520167  RH  059%=      5-min Rain = 0
KSW1 180145Z 11005KT 25/17 A2994 RMK A01 T02520167  RH  059%=      5-min Rain = 0
KSW1 180146Z 11005KT 25/17 A2995 RMK A01 T02510167  RH  060%=      5-min Rain = 0
KSW1 180147Z 11005KT 25/17 A2995 RMK A01 T02520168  RH  060%=      5-min Rain = 0
KSW1 180148Z 11005KT 25/17 A2995 RMK A01 T02510168  RH  060%=      5-min Rain = 0
KSW1 180149Z 11005KT 25/17 A2995 RMK A01 T02510168  RH  060%=      5-min Rain = 0
KSW1 180150Z 11005KT 25/17 A2995 RMK A01 T02510169  RH  060%=      5-min Rain = 0
KSW1 180151Z 11005KT 25/17 A2995 RMK A01 T02500169  RH  060%=      5-min Rain = 0
KSW1 180152Z 11005KT 25/17 A2995 RMK A01 T02500169  RH  061%=      5-min Rain = 0
KSW1 180153Z 11005KT 25/17 A2995 RMK A01 T02500169  RH  061%=      5-min Rain = 0
KSW1 180154Z 11005KT 25/17 A2995 RMK A01 T02490170  RH  061%=      5-min Rain = 0
KSW1 180155Z 11005KT 25/17 A2995 RMK A01 T02490170  RH  061%=      5-min Rain = 0
KSW1 180156Z 11005KT 25/17 A2995 RMK A01 T02490170  RH  061%=      5-min Rain = 0
KSW1 180157Z 12006KT 25/17 A2995 RMK A01 T02490170  RH  061%=      5-min Rain = 0
KSW1 180158Z 12006KT 25/17 A2995 RMK A01 T02490170  RH  062%=      5-min Rain = 0
KSW1 180159Z 12005KT 25/17 A2995 RMK A01 T02490170  RH  062%=      5-min Rain = 0
KSW1 180200Z 12006KT 25/17 A2995 RMK A01 T02490171  RH  062%=      5-min Rain = 0
KSW1 180201Z 12006KT 25/17 A2995 RMK A01 T02490172  RH  062%=      5-min Rain = 0
KSW1 180202Z 12006KT 25/17 A2995 RMK A01 T02490173  RH  062%=      5-min Rain = 0
KSW1 180203Z 12006KT 25/17 A2995 RMK A01 T02490173  RH  063%=      5-min Rain = 0
KSW1 180204Z 12006KT 25/17 A2995 RMK A01 T02490173  RH  063%=      5-min Rain = 0
KSW1 180205Z 12006KT 25/17 A2995 RMK A01 T02480174  RH  063%=      5-min Rain = 0
KSW1 180206Z 12006KT 25/17 A2995 RMK A01 T02480174  RH  063%=      5-min Rain = 0
KSW1 180207Z 12007KT 25/17 A2995 RMK A01 T02470174  RH  064%=      5-min Rain = 0
KSW1 180208Z 12007KT 25/17 A2995 RMK A01 T02470174  RH  064%=      5-min Rain = 0
KSW1 180209Z 12007KT 25/17 A2995 RMK A01 T02460174  RH  064%=      5-min Rain = 0
KSW1 180210Z 12007KT 25/18 A2994 RMK A01 T02460175  RH  064%=      5-min Rain = 0
KSW1 180211Z 12007KT 25/18 A2994 RMK A01 T02450175  RH  065%=      5-min Rain = 0
KSW1 180212Z 12006KT 25/18 A2994 RMK A01 T02450175  RH  065%=      5-min Rain = 0
KSW1 180213Z 12006KT 25/18 A2994 RMK A01 T02450175  RH  065%=      5-min Rain = 0
KSW1 180214Z 12006KT 25/18 A2994 RMK A01 T02450176  RH  065%=      5-min Rain = 0
KSW1 180215Z 13006KT 25/18 A2994 RMK A01 T02450176  RH  065%=      5-min Rain = 0
KSW1 180216Z 13006KT 24/18 A2994 RMK A01 T02440176  RH  066%=      5-min Rain = 0
KSW1 180217Z 13006KT 24/18 A2994 RMK A01 T02440176  RH  066%=      5-min Rain = 0
KSW1 180218Z 12006KT 24/18 A2994 RMK A01 T02440176  RH  066%=      5-min Rain = 0
KSW1 180219Z 12006KT 24/18 A2994 RMK A01 T02430176  RH  066%=      5-min Rain = 0
KSW1 180220Z 12006KT 24/18 A2994 RMK A01 T02430176  RH  066%=      5-min Rain = 0
KSW1 180221Z 12006KT 24/18 A2994 RMK A01 T02430176  RH  066%=      5-min Rain = 0
KSW1 180222Z 13006KT 24/18 A2994 RMK A01 T02420176  RH  066%=      5-min Rain = 0
KSW1 180223Z 13006KT 24/18 A2994 RMK A01 T02420176  RH  066%=      5-min Rain = 0
KSW1 180224Z 13007KT 24/18 A2994 RMK A01 T02420175  RH  066%=      5-min Rain = 0
KSW1 180225Z 13006KT 24/18 A2994 RMK A01 T02420175  RH  066%=      5-min Rain = 0
KSW1 180226Z 13007KT 24/18 A2994 RMK A01 T02420175  RH  066%=      5-min Rain = 0
KSW1 180227Z 12006KT 24/18 A2995 RMK A01 T02420175  RH  066%=      5-min Rain = 0
KSW1 180228Z 13007KT 24/17 A2995 RMK A01 T02430174  RH  066%=      5-min Rain = 0
KSW1 180229Z 13006KT 24/17 A2995 RMK A01 T02430174  RH  065%=      5-min Rain = 0
KSW1 180230Z 13006KT 24/17 A2995 RMK A01 T02430174  RH  065%=      5-min Rain = 0
KSW1 180231Z 13007KT 24/17 A2995 RMK A01 T02430173  RH  065%=      5-min Rain = 0
KSW1 180232Z 12007KT 24/17 A2995 RMK A01 T02440173  RH  065%=      5-min Rain = 0
KSW1 180233Z 12007KT 24/17 A2995 RMK A01 T02440173  RH  065%=      5-min Rain = 0
KSW1 180234Z 12007KT 24/17 A2995 RMK A01 T02440173  RH  064%=      5-min Rain = 0
KSW1 180235Z 13007KT 24/17 A2995 RMK A01 T02440172  RH  064%=      5-min Rain = 0
KSW1 180236Z 13006KT 25/17 A2995 RMK A01 T02450172  RH  064%=      5-min Rain = 0
KSW1 180237Z 13006KT 25/17 A2995 RMK A01 T02450173  RH  064%=      5-min Rain = 0
KSW1 180238Z 13006KT 25/17 A2995 RMK A01 T02450173  RH  064%=      5-min Rain = 0
KSW1 180239Z 13007KT 24/17 A2995 RMK A01 T02440172  RH  064%=      5-min Rain = 0
KSW1 180240Z 13006KT 24/17 A2995 RMK A01 T02440172  RH  064%=      5-min Rain = 0
KSW1 180241Z 13008KT 24/17 A2995 RMK A01 T02440172  RH  064%=      5-min Rain = 0
KSW1 180242Z 13008KT 24/17 A2995 RMK A01 T02440171  RH  064%=      5-min Rain = 0
KSW1 180243Z 13007KT 25/17 A2995 RMK A01 T02450171  RH  063%=      5-min Rain = 0
KSW1 180244Z 13008KT 25/17 A2995 RMK A01 T02450171  RH  063%=      5-min Rain = 0
KSW1 180245Z 13007KT 25/17 A2995 RMK A01 T02450171  RH  063%=      5-min Rain = 0
KSW1 180246Z 13008KT 25/17 A2995 RMK A01 T02450170  RH  063%=      5-min Rain = 0
KSW1 180247Z 13007KT 25/17 A2995 RMK A01 T02450170  RH  063%=      5-min Rain = 0
KSW1 180248Z 13007KT 25/17 A2995 RMK A01 T02460170  RH  063%=      5-min Rain = 0
KSW1 180249Z 13007KT 25/17 A2995 RMK A01 T02460170  RH  063%=      5-min Rain = 0
KSW1 180250Z 13007KT 25/17 A2995 RMK A01 T02460170  RH  063%=      5-min Rain = 0
KSW1 180251Z 13007KT 25/17 A2995 RMK A01 T02460170  RH  063%=      5-min Rain = 0
KSW1 180252Z 13007KT 25/17 A2996 RMK A01 T02460170  RH  063%=      5-min Rain = 0
KSW1 180253Z 13007KT 25/17 A2996 RMK A01 T02460170  RH  063%=      5-min Rain = 0
KSW1 180254Z 13007KT 25/17 A2996 RMK A01 T02460171  RH  063%=      5-min Rain = 0
KSW1 180255Z 13007KT 25/17 A2996 RMK A01 T02460171  RH  063%=      5-min Rain = 0
KSW1 180256Z 13007KT 25/17 A2996 RMK A01 T02460171  RH  063%=      5-min Rain = 0
KSW1 180257Z 14007KT 25/17 A2996 RMK A01 T02460171  RH  063%=      5-min Rain = 0
KSW1 180258Z 14007KT 25/17 A2996 RMK A01 T02460171  RH  063%=      5-min Rain = 0
KSW1 180259Z 13007KT 25/17 A2996 RMK A01 T02460171  RH  063%=      5-min Rain = 0
KSW1 180300Z 13007KT 25/17 A2996 RMK A01 T02450172  RH  063%=      5-min Rain = 0
KSW1 180301Z 13007KT 25/17 A2996 RMK A01 T02450171  RH  063%=      5-min Rain = 0
KSW1 180302Z 13008KT 25/17 A2996 RMK A01 T02450171  RH  063%=      5-min Rain = 0
KSW1 180303Z 13008KT 25/17 A2996 RMK A01 T02460171  RH  063%=      5-min Rain = 0
KSW1 180304Z 13008KT 25/17 A2997 RMK A01 T02450171  RH  063%=      5-min Rain = 0
KSW1 180305Z 13007KT 25/17 A2997 RMK A01 T02460171  RH  063%=      5-min Rain = 0
KSW1 180306Z 13007KT 25/17 A2997 RMK A01 T02450171  RH  063%=      5-min Rain = 0
KSW1 180307Z 13008KT 25/17 A2997 RMK A01 T02460172  RH  063%=      5-min Rain = 0
KSW1 180308Z 13007KT 25/17 A2997 RMK A01 T02460172  RH  063%=      5-min Rain = 0
KSW1 180309Z 13008KT 25/17 A2997 RMK A01 T02450172  RH  064%=      5-min Rain = 0
KSW1 180310Z 13007KT 25/17 A2997 RMK A01 T02450172  RH  063%=      5-min Rain = 0
KSW1 180311Z 13009KT 25/17 A2997 RMK A01 T02450172  RH  064%=      5-min Rain = 0
KSW1 180312Z 13008KT 25/17 A2997 RMK A01 T02450171  RH  063%=      5-min Rain = 0
KSW1 180313Z 13007KT 25/17 A2997 RMK A01 T02450171  RH  063%=      5-min Rain = 0
KSW1 180314Z 13007KT 25/17 A2997 RMK A01 T02450172  RH  064%=      5-min Rain = 0
KSW1 180315Z 13007KT 25/17 A2997 RMK A01 T02450172  RH  064%=      5-min Rain = 0
KSW1 180316Z 13008KT 24/17 A2997 RMK A01 T02440172  RH  064%=      5-min Rain = 0
KSW1 180317Z 13008KT 24/17 A2997 RMK A01 T02440172  RH  064%=      5-min Rain = 0
KSW1 180318Z 13009KT 24/17 A2997 RMK A01 T02440171  RH  064%=      5-min Rain = 0
KSW1 180319Z 13008KT 24/17 A2997 RMK A01 T02440171  RH  064%=      5-min Rain = 0
KSW1 180320Z 13008KT 24/17 A2997 RMK A01 T02440171  RH  064%=      5-min Rain = 0
KSW1 180321Z 14009KT 24/17 A2997 RMK A01 T02440172  RH  064%=      5-min Rain = 0
KSW1 180322Z 14009KT 24/17 A2997 RMK A01 T02430172  RH  064%=      5-min Rain = 0
KSW1 180323Z 14008KT 24/17 A2997 RMK A01 T02430172  RH  064%=      5-min Rain = 0
KSW1 180324Z 14007KT 24/17 A2997 RMK A01 T02430172  RH  064%=      5-min Rain = 0
KSW1 180325Z 14007KT 24/17 A2998 RMK A01 T02430172  RH  064%=      5-min Rain = 0
KSW1 180326Z 14007KT 24/17 A2998 RMK A01 T02430172  RH  065%=      5-min Rain = 0
KSW1 180327Z 14007KT 24/17 A2998 RMK A01 T02430172  RH  065%=      5-min Rain = 0
KSW1 180328Z 14007KT 24/17 A2998 RMK A01 T02420172  RH  065%=      5-min Rain = 0
KSW1 180329Z 14007KT 24/17 A2998 RMK A01 T02420172  RH  065%=      5-min Rain = 0
KSW1 180330Z 15007KT 24/17 A2998 RMK A01 T02420172  RH  065%=      5-min Rain = 0
KSW1 180331Z 15007KT 24/17 A2998 RMK A01 T02410172  RH  065%=      5-min Rain = 0
KSW1 180332Z 15007KT 24/17 A2998 RMK A01 T02410173  RH  065%=      5-min Rain = 0
KSW1 180333Z 15007KT 24/17 A2998 RMK A01 T02410172  RH  065%=      5-min Rain = 0
KSW1 180334Z 15007KT 24/17 A2998 RMK A01 T02420173  RH  065%=      5-min Rain = 0
KSW1 180335Z 14007KT 24/17 A2998 RMK A01 T02410172  RH  065%=      5-min Rain = 0
KSW1 180336Z 14007KT 24/17 A2998 RMK A01 T02410172  RH  065%=      5-min Rain = 0
KSW1 180337Z 13007KT 24/17 A2998 RMK A01 T02420173  RH  065%=      5-min Rain = 0
KSW1 180338Z 14008KT 24/17 A2998 RMK A01 T02410172  RH  065%=      5-min Rain = 0
KSW1 180339Z 13007KT 24/17 A2998 RMK A01 T02410172  RH  065%=      5-min Rain = 0
KSW1 180340Z 13007KT 24/17 A2998 RMK A01 T02410172  RH  065%=      5-min Rain = 0
KSW1 180341Z 13007KT 24/17 A2998 RMK A01 T02410172  RH  065%=      5-min Rain = 0
KSW1 180342Z 13007KT 24/17 A2998 RMK A01 T02410172  RH  066%=      5-min Rain = 0
KSW1 180343Z 13007KT 24/17 A2998 RMK A01 T02410172  RH  066%=      5-min Rain = 0
KSW1 180344Z 12007KT 24/17 A2998 RMK A01 T02400172  RH  066%=      5-min Rain = 0
KSW1 180345Z 13007KT 24/17 A2998 RMK A01 T02400172  RH  066%=      5-min Rain = 0
KSW1 180346Z 13006KT 24/17 A2998 RMK A01 T02400172  RH  066%=      5-min Rain = 0
KSW1 180347Z 13007KT 24/17 A2998 RMK A01 T02390172  RH  066%=      5-min Rain = 0
KSW1 180348Z 13007KT 24/17 A2998 RMK A01 T02380173  RH  067%=      5-min Rain = 0
KSW1 180349Z 13006KT 24/17 A2998 RMK A01 T02370172  RH  067%=      5-min Rain = 0
KSW1 180350Z 13007KT 24/17 A2998 RMK A01 T02370172  RH  067%=      5-min Rain = 0
KSW1 180351Z 13007KT 24/17 A2998 RMK A01 T02370172  RH  067%=      5-min Rain = 0
KSW1 180352Z 13007KT 24/17 A2998 RMK A01 T02370172  RH  067%=      5-min Rain = 0
KSW1 180353Z 13008KT 24/17 A2998 RMK A01 T02370172  RH  067%=      5-min Rain = 0
KSW1 180354Z 13009KT 24/17 A2998 RMK A01 T02370172  RH  067%=      5-min Rain = 0
KSW1 180355Z 13008KT 24/17 A2998 RMK A01 T02370172  RH  067%=      5-min Rain = 0
KSW1 180356Z 13007KT 24/17 A2998 RMK A01 T02370172  RH  067%=      5-min Rain = 0
KSW1 180357Z 13008KT 24/17 A2998 RMK A01 T02370172  RH  067%=      5-min Rain = 0
KSW1 180358Z 13008KT 24/17 A2998 RMK A01 T02370172  RH  067%=      5-min Rain = 0
KSW1 180359Z 13007KT 24/17 A2998 RMK A01 T02370171  RH  067%=      5-min Rain = 0
KSW1 180400Z 13008KT 24/17 A2998 RMK A01 T02370172  RH  067%=      5-min Rain = 0
KSW1 180401Z 13007KT 24/17 A2998 RMK A01 T02360172  RH  067%=      5-min Rain = 0
KSW1 180402Z 12008KT 24/17 A2998 RMK A01 T02360172  RH  067%=      5-min Rain = 0
KSW1 180403Z 12008KT 24/17 A2998 RMK A01 T02360171  RH  067%=      5-min Rain = 0
KSW1 180404Z 12008KT 24/17 A2998 RMK A01 T02360171  RH  067%=      5-min Rain = 0
KSW1 180405Z 11007KT 24/17 A2998 RMK A01 T02360171  RH  067%=      5-min Rain = 0
KSW1 180406Z 11007KT 24/17 A2998 RMK A01 T02360171  RH  067%=      5-min Rain = 0
KSW1 180407Z 11006KT 24/17 A2998 RMK A01 T02360172  RH  067%=      5-min Rain = 0
KSW1 180408Z 11006KT 24/17 A2998 RMK A01 T02350171  RH  067%=      5-min Rain = 0
KSW1 180409Z 12007KT 24/17 A2998 RMK A01 T02350171  RH  067%=      5-min Rain = 0
KSW1 180410Z 12006KT 24/17 A2998 RMK A01 T02350172  RH  067%=      5-min Rain = 0
KSW1 180411Z 12006KT 24/17 A2998 RMK A01 T02350172  RH  067%=      5-min Rain = 0
KSW1 180412Z 13005KT 24/17 A2998 RMK A01 T02350172  RH  068%=      5-min Rain = 0
KSW1 180413Z 13005KT 23/17 A2998 RMK A01 T02340172  RH  068%=      5-min Rain = 0
KSW1 180414Z 13005KT 23/17 A2998 RMK A01 T02340172  RH  068%=      5-min Rain = 0
KSW1 180415Z 13005KT 23/17 A2998 RMK A01 T02340172  RH  068%=      5-min Rain = 0
KSW1 180416Z 13006KT 23/17 A2999 RMK A01 T02340172  RH  068%=      5-min Rain = 0
KSW1 180417Z 13007KT 23/17 A2999 RMK A01 T02330172  RH  069%=      5-min Rain = 0
KSW1 180418Z 13007KT 23/17 A2999 RMK A01 T02320172  RH  069%=      5-min Rain = 0
KSW1 180419Z 13007KT 23/17 A2999 RMK A01 T02320172  RH  069%=      5-min Rain = 0
KSW1 180420Z 13007KT 23/17 A2999 RMK A01 T02320172  RH  069%=      5-min Rain = 0
KSW1 180421Z 13007KT 23/17 A2999 RMK A01 T02320172  RH  069%=      5-min Rain = 0
KSW1 180422Z 14007KT 23/17 A2999 RMK A01 T02310172  RH  069%=      5-min Rain = 0
KSW1 180423Z 13007KT 23/17 A2999 RMK A01 T02310173  RH  069%=      5-min Rain = 0
KSW1 180424Z 14007KT 23/17 A2999 RMK A01 T02310172  RH  070%=      5-min Rain = 0
KSW1 180425Z 14007KT 23/17 A2999 RMK A01 T02310173  RH  070%=      5-min Rain = 0
KSW1 180426Z 14008KT 23/17 A2999 RMK A01 T02300172  RH  070%=      5-min Rain = 0
KSW1 180427Z 14007KT 23/17 A2999 RMK A01 T02300172  RH  070%=      5-min Rain = 0
KSW1 180428Z 14007KT 23/17 A2999 RMK A01 T02300172  RH  070%=      5-min Rain = 0
KSW1 180429Z 13007KT 23/17 A2999 RMK A01 T02300172  RH  070%=      5-min Rain = 0
KSW1 180430Z 13008KT 23/17 A2999 RMK A01 T02300173  RH  070%=      5-min Rain = 0
KSW1 180431Z 13008KT 23/17 A2999 RMK A01 T02300172  RH  070%=      5-min Rain = 0
KSW1 180432Z 13008KT 23/17 A2999 RMK A01 T02300173  RH  070%=      5-min Rain = 0
KSW1 180433Z 13008KT 23/17 A2999 RMK A01 T02300173  RH  070%=      5-min Rain = 0
KSW1 180434Z 13008KT 23/17 A2999 RMK A01 T02300173  RH  070%=      5-min Rain = 0
KSW1 180435Z 13008KT 23/17 A2999 RMK A01 T02300173  RH  070%=      5-min Rain = 0
KSW1 180436Z 13008KT 23/17 A2999 RMK A01 T02300173  RH  070%=      5-min Rain = 0
KSW1 180437Z 13007KT 23/17 A2999 RMK A01 T02300173  RH  070%=      5-min Rain = 0
KSW1 180438Z 13008KT 23/17 A2999 RMK A01 T02300173  RH  070%=      5-min Rain = 0
KSW1 180439Z 13008KT 23/17 A2999 RMK A01 T02300173  RH  070%=      5-min Rain = 0
KSW1 180440Z 12008KT 23/17 A2999 RMK A01 T02300173  RH  070%=      5-min Rain = 0
KSW1 180441Z 12008KT 23/17 A2999 RMK A01 T02290173  RH  071%=      5-min Rain = 0
KSW1 180442Z 13008KT 23/17 A2999 RMK A01 T02290173  RH  071%=      5-min Rain = 0
KSW1 180443Z 13008KT 23/17 A2999 RMK A01 T02290173  RH  070%=      5-min Rain = 0
KSW1 180444Z 13007KT 23/17 A2999 RMK A01 T02290173  RH  070%=      5-min Rain = 0
KSW1 180445Z 13007KT 23/17 A2999 RMK A01 T02300173  RH  070%=      5-min Rain = 0
KSW1 180446Z 13007KT 23/17 A2999 RMK A01 T02290173  RH  070%=      5-min Rain = 0
KSW1 180447Z 13007KT 23/17 A2999 RMK A01 T02300173  RH  070%=      5-min Rain = 0
KSW1 180448Z 13006KT 23/17 A2999 RMK A01 T02300173  RH  070%=      5-min Rain = 0
KSW1 180449Z 13006KT 23/17 A30 RMK A01 T02300173  RH  071%=      5-min Rain = 0
KSW1 180450Z 13006KT 23/17 A30 RMK A01 T02290173  RH  071%=      5-min Rain = 0
KSW1 180451Z 13006KT 23/17 A30 RMK A01 T02300174  RH  071%=      5-min Rain = 0
KSW1 180452Z 13007KT 23/17 A30 RMK A01 T02290174  RH  071%=      5-min Rain = 0
KSW1 180453Z 13007KT 23/17 A2999 RMK A01 T02290174  RH  071%=      5-min Rain = 0
KSW1 180454Z 12007KT 23/17 A2999 RMK A01 T02300174  RH  071%=      5-min Rain = 0
KSW1 180455Z 12007KT 23/17 A2999 RMK A01 T02300174  RH  071%=      5-min Rain = 0
KSW1 180456Z 12006KT 23/17 A2999 RMK A01 T02300174  RH  071%=      5-min Rain = 0
KSW1 180457Z 12008KT 23/17 A2999 RMK A01 T02290174  RH  071%=      5-min Rain = 0
KSW1 180458Z 12006KT 23/17 A30 RMK A01 T02300174  RH  071%=      5-min Rain = 0
KSW1 180459Z 12007KT 23/17 A30 RMK A01 T02300174  RH  071%=      5-min Rain = 0

Page generated in 0.2053 seconds.